<?xml version="1.0" encoding="UTF-8"?>
<gpx xmlns="http://www.topografix.com/GPX/1/1" xmlns:xsi="http://www.w3.org/2001/XMLSchema-instance" version="1.1" xsi:schemaLocation="http://www.topografix.com/GPX/1/1 http://www.topografix.com/GPX/1/1/gpx.xsd">
  <metadata>
    <name>Patriot Half Triathlon 2022</name>
  </metadata>
  <trk>
    <name>Patriot Half Triathlon 2022</name>
    <trkseg>
      <trkpt lat="41.779359" lon="-70.935257">
        <ele>21.64674</ele>
        <time>2023-06-17T07:38:00.000Z</time>
      </trkpt>
      <trkpt lat="41.779319" lon="-70.935242">
        <ele>21.64674</ele>
        <time>2023-06-17T07:38:00.000Z</time>
      </trkpt>
      <trkpt lat="41.777927" lon="-70.935146">
        <ele>21.866731</ele>
        <time>2023-06-17T07:38:15.000Z</time>
      </trkpt>
      <trkpt lat="41.777676" lon="-70.935074">
        <ele>21.974143</ele>
        <time>2023-06-17T07:38:18.000Z</time>
      </trkpt>
      <trkpt lat="41.777374" lon="-70.935394">
        <ele>22.129906</ele>
        <time>2023-06-17T07:38:22.000Z</time>
      </trkpt>
      <trkpt lat="41.776985" lon="-70.935601">
        <ele>22.301061</ele>
        <time>2023-06-17T07:38:27.000Z</time>
      </trkpt>
      <trkpt lat="41.776739" lon="-70.935666">
        <ele>22.38808</ele>
        <time>2023-06-17T07:38:30.000Z</time>
      </trkpt>
      <trkpt lat="41.776053" lon="-70.935859">
        <ele>22.357897</ele>
        <time>2023-06-17T07:38:38.000Z</time>
      </trkpt>
      <trkpt lat="41.775945" lon="-70.935881">
        <ele>22.353306</ele>
        <time>2023-06-17T07:38:39.000Z</time>
      </trkpt>
      <trkpt lat="41.775654" lon="-70.936004">
        <ele>22.340344</ele>
        <time>2023-06-17T07:38:42.000Z</time>
      </trkpt>
      <trkpt lat="41.774853" lon="-70.93648">
        <ele>22.387682</ele>
        <time>2023-06-17T07:38:52.000Z</time>
      </trkpt>
      <trkpt lat="41.774459" lon="-70.936815">
        <ele>22.543168</ele>
        <time>2023-06-17T07:38:57.000Z</time>
      </trkpt>
      <trkpt lat="41.773517" lon="-70.937788">
        <ele>22.967409</ele>
        <time>2023-06-17T07:39:10.000Z</time>
      </trkpt>
      <trkpt lat="41.773032" lon="-70.938361">
        <ele>23.443013</ele>
        <time>2023-06-17T07:39:17.000Z</time>
      </trkpt>
      <trkpt lat="41.772059" lon="-70.93981">
        <ele>24.45553</ele>
        <time>2023-06-17T07:39:33.000Z</time>
      </trkpt>
      <trkpt lat="41.771498" lon="-70.940273">
        <ele>24.865746</ele>
        <time>2023-06-17T07:39:40.000Z</time>
      </trkpt>
      <trkpt lat="41.771276" lon="-70.940419">
        <ele>25.018736</ele>
        <time>2023-06-17T07:39:43.000Z</time>
      </trkpt>
      <trkpt lat="41.770993" lon="-70.94063">
        <ele>25.216194</ele>
        <time>2023-06-17T07:39:47.000Z</time>
      </trkpt>
      <trkpt lat="41.770754" lon="-70.940807">
        <ele>25.335678</ele>
        <time>2023-06-17T07:39:50.000Z</time>
      </trkpt>
      <trkpt lat="41.770243" lon="-70.941193">
        <ele>25.381192</ele>
        <time>2023-06-17T07:39:57.000Z</time>
      </trkpt>
      <trkpt lat="41.769954" lon="-70.941393">
        <ele>25.406919</ele>
        <time>2023-06-17T07:40:01.000Z</time>
      </trkpt>
      <trkpt lat="41.76956" lon="-70.941651">
        <ele>25.440973</ele>
        <time>2023-06-17T07:40:06.000Z</time>
      </trkpt>
      <trkpt lat="41.769196" lon="-70.94185">
        <ele>25.468975</ele>
        <time>2023-06-17T07:40:10.000Z</time>
      </trkpt>
      <trkpt lat="41.768394" lon="-70.942063">
        <ele>25.479277</ele>
        <time>2023-06-17T07:40:19.000Z</time>
      </trkpt>
      <trkpt lat="41.768238" lon="-70.942099">
        <ele>25.481342</ele>
        <time>2023-06-17T07:40:21.000Z</time>
      </trkpt>
      <trkpt lat="41.76722" lon="-70.942339">
        <ele>25.464636</ele>
        <time>2023-06-17T07:40:32.000Z</time>
      </trkpt>
      <trkpt lat="41.767214" lon="-70.942976">
        <ele>25.416225</ele>
        <time>2023-06-17T07:40:37.000Z</time>
      </trkpt>
      <trkpt lat="41.767322" lon="-70.94377">
        <ele>25.354361</ele>
        <time>2023-06-17T07:40:44.000Z</time>
      </trkpt>
      <trkpt lat="41.767516" lon="-70.944238">
        <ele>25.314269</ele>
        <time>2023-06-17T07:40:48.000Z</time>
      </trkpt>
      <trkpt lat="41.767559" lon="-70.944347">
        <ele>25.329657</ele>
        <time>2023-06-17T07:40:49.000Z</time>
      </trkpt>
      <trkpt lat="41.767586" lon="-70.944444">
        <ele>25.375218</ele>
        <time>2023-06-17T07:40:50.000Z</time>
      </trkpt>
      <trkpt lat="41.767674" lon="-70.944645">
        <ele>25.49348</ele>
        <time>2023-06-17T07:40:52.000Z</time>
      </trkpt>
      <trkpt lat="41.767694" lon="-70.944676">
        <ele>25.516786</ele>
        <time>2023-06-17T07:40:52.000Z</time>
      </trkpt>
      <trkpt lat="41.767714" lon="-70.944734">
        <ele>25.542094</ele>
        <time>2023-06-17T07:40:53.000Z</time>
      </trkpt>
      <trkpt lat="41.767816" lon="-70.944921">
        <ele>25.661433</ele>
        <time>2023-06-17T07:40:55.000Z</time>
      </trkpt>
      <trkpt lat="41.76796" lon="-70.945224">
        <ele>25.83456</ele>
        <time>2023-06-17T07:40:58.000Z</time>
      </trkpt>
      <trkpt lat="41.768192" lon="-70.94614">
        <ele>26.309182</ele>
        <time>2023-06-17T07:41:06.000Z</time>
      </trkpt>
      <trkpt lat="41.76837" lon="-70.947544">
        <ele>26.990049</ele>
        <time>2023-06-17T07:41:18.000Z</time>
      </trkpt>
      <trkpt lat="41.768553" lon="-70.948579">
        <ele>27.494229</ele>
        <time>2023-06-17T07:41:27.000Z</time>
      </trkpt>
      <trkpt lat="41.76862" lon="-70.948851">
        <ele>27.630974</ele>
        <time>2023-06-17T07:41:29.000Z</time>
      </trkpt>
      <trkpt lat="41.768747" lon="-70.949263">
        <ele>27.756843</ele>
        <time>2023-06-17T07:41:33.000Z</time>
      </trkpt>
      <trkpt lat="41.769223" lon="-70.95059">
        <ele>28.166866</ele>
        <time>2023-06-17T07:41:45.000Z</time>
      </trkpt>
      <trkpt lat="41.770074" lon="-70.95203">
        <ele>28.925557</ele>
        <time>2023-06-17T07:42:00.000Z</time>
      </trkpt>
      <trkpt lat="41.77035" lon="-70.952744">
        <ele>29.297026</ele>
        <time>2023-06-17T07:42:07.000Z</time>
      </trkpt>
      <trkpt lat="41.77063" lon="-70.954322">
        <ele>29.439468</ele>
        <time>2023-06-17T07:42:20.000Z</time>
      </trkpt>
      <trkpt lat="41.770736" lon="-70.954794">
        <ele>29.445805</ele>
        <time>2023-06-17T07:42:24.000Z</time>
      </trkpt>
      <trkpt lat="41.770831" lon="-70.955018">
        <ele>29.44902</ele>
        <time>2023-06-17T07:42:26.000Z</time>
      </trkpt>
      <trkpt lat="41.770848" lon="-70.955403">
        <ele>29.417562</ele>
        <time>2023-06-17T07:42:29.000Z</time>
      </trkpt>
      <trkpt lat="41.770863" lon="-70.955454">
        <ele>29.395107</ele>
        <time>2023-06-17T07:42:29.000Z</time>
      </trkpt>
      <trkpt lat="41.771131" lon="-70.955826">
        <ele>29.161734</ele>
        <time>2023-06-17T07:42:33.000Z</time>
      </trkpt>
      <trkpt lat="41.771473" lon="-70.956162">
        <ele>28.897061</ele>
        <time>2023-06-17T07:42:38.000Z</time>
      </trkpt>
      <trkpt lat="41.772049" lon="-70.956643">
        <ele>28.475951</ele>
        <time>2023-06-17T07:42:46.000Z</time>
      </trkpt>
      <trkpt lat="41.773481" lon="-70.957749">
        <ele>26.980389</ele>
        <time>2023-06-17T07:43:04.000Z</time>
      </trkpt>
      <trkpt lat="41.773554" lon="-70.957794">
        <ele>26.908828</ele>
        <time>2023-06-17T07:43:05.000Z</time>
      </trkpt>
      <trkpt lat="41.773844" lon="-70.958014">
        <ele>26.605796</ele>
        <time>2023-06-17T07:43:09.000Z</time>
      </trkpt>
      <trkpt lat="41.774129" lon="-70.958141">
        <ele>26.377583</ele>
        <time>2023-06-17T07:43:12.000Z</time>
      </trkpt>
      <trkpt lat="41.774384" lon="-70.958234">
        <ele>26.166319</ele>
        <time>2023-06-17T07:43:15.000Z</time>
      </trkpt>
      <trkpt lat="41.774478" lon="-70.958256">
        <ele>26.095405</ele>
        <time>2023-06-17T07:43:16.000Z</time>
      </trkpt>
      <trkpt lat="41.774593" lon="-70.958272">
        <ele>26.001337</ele>
        <time>2023-06-17T07:43:17.000Z</time>
      </trkpt>
      <trkpt lat="41.774741" lon="-70.958299">
        <ele>25.895468</ele>
        <time>2023-06-17T07:43:19.000Z</time>
      </trkpt>
      <trkpt lat="41.774737" lon="-70.95835">
        <ele>25.863693</ele>
        <time>2023-06-17T07:43:19.000Z</time>
      </trkpt>
      <trkpt lat="41.774685" lon="-70.958734">
        <ele>25.642563</ele>
        <time>2023-06-17T07:43:22.000Z</time>
      </trkpt>
      <trkpt lat="41.77461" lon="-70.95942">
        <ele>25.257327</ele>
        <time>2023-06-17T07:43:28.000Z</time>
      </trkpt>
      <trkpt lat="41.774328" lon="-70.960508">
        <ele>25.645226</ele>
        <time>2023-06-17T07:43:38.000Z</time>
      </trkpt>
      <trkpt lat="41.773785" lon="-70.961347">
        <ele>26.020787</ele>
        <time>2023-06-17T07:43:47.000Z</time>
      </trkpt>
      <trkpt lat="41.773624" lon="-70.961772">
        <ele>26.123298</ele>
        <time>2023-06-17T07:43:51.000Z</time>
      </trkpt>
      <trkpt lat="41.77353" lon="-70.962388">
        <ele>26.225666</ele>
        <time>2023-06-17T07:43:56.000Z</time>
      </trkpt>
      <trkpt lat="41.773613" lon="-70.963004">
        <ele>26.325859</ele>
        <time>2023-06-17T07:44:01.000Z</time>
      </trkpt>
      <trkpt lat="41.773762" lon="-70.963378">
        <ele>26.397095</ele>
        <time>2023-06-17T07:44:05.000Z</time>
      </trkpt>
      <trkpt lat="41.774114" lon="-70.963811">
        <ele>26.453273</ele>
        <time>2023-06-17T07:44:10.000Z</time>
      </trkpt>
      <trkpt lat="41.774437" lon="-70.964239">
        <ele>26.441238</ele>
        <time>2023-06-17T07:44:15.000Z</time>
      </trkpt>
      <trkpt lat="41.774637" lon="-70.964682">
        <ele>26.43066</ele>
        <time>2023-06-17T07:44:19.000Z</time>
      </trkpt>
      <trkpt lat="41.774854" lon="-70.965349">
        <ele>26.416521</ele>
        <time>2023-06-17T07:44:25.000Z</time>
      </trkpt>
      <trkpt lat="41.774957" lon="-70.965956">
        <ele>26.588834</ele>
        <time>2023-06-17T07:44:30.000Z</time>
      </trkpt>
      <trkpt lat="41.775118" lon="-70.967148">
        <ele>27.257135</ele>
        <time>2023-06-17T07:44:40.000Z</time>
      </trkpt>
      <trkpt lat="41.775586" lon="-70.968166">
        <ele>27.957955</ele>
        <time>2023-06-17T07:44:50.000Z</time>
      </trkpt>
      <trkpt lat="41.775896" lon="-70.968484">
        <ele>28.272963</ele>
        <time>2023-06-17T07:44:54.000Z</time>
      </trkpt>
      <trkpt lat="41.776171" lon="-70.968661">
        <ele>28.543439</ele>
        <time>2023-06-17T07:44:57.000Z</time>
      </trkpt>
      <trkpt lat="41.778177" lon="-70.968988">
        <ele>30.228751</ele>
        <time>2023-06-17T07:45:19.000Z</time>
      </trkpt>
      <trkpt lat="41.778531" lon="-70.969111">
        <ele>30.528445</ele>
        <time>2023-06-17T07:45:23.000Z</time>
      </trkpt>
      <trkpt lat="41.778839" lon="-70.969308">
        <ele>30.770128</ele>
        <time>2023-06-17T07:45:27.000Z</time>
      </trkpt>
      <trkpt lat="41.779638" lon="-70.969992">
        <ele>30.918034</ele>
        <time>2023-06-17T07:45:38.000Z</time>
      </trkpt>
      <trkpt lat="41.780831" lon="-70.970629">
        <ele>31.097363</ele>
        <time>2023-06-17T07:45:52.000Z</time>
      </trkpt>
      <trkpt lat="41.781194" lon="-70.97077">
        <ele>31.141933</ele>
        <time>2023-06-17T07:45:56.000Z</time>
      </trkpt>
      <trkpt lat="41.781543" lon="-70.970778">
        <ele>31.18277</ele>
        <time>2023-06-17T07:46:00.000Z</time>
      </trkpt>
      <trkpt lat="41.782403" lon="-70.97054">
        <ele>31.790658</ele>
        <time>2023-06-17T07:46:10.000Z</time>
      </trkpt>
      <trkpt lat="41.783202" lon="-70.970235">
        <ele>33.303523</ele>
        <time>2023-06-17T07:46:19.000Z</time>
      </trkpt>
      <trkpt lat="41.783576" lon="-70.970197">
        <ele>33.987692</ele>
        <time>2023-06-17T07:46:23.000Z</time>
      </trkpt>
      <trkpt lat="41.78413" lon="-70.970286">
        <ele>34.787664</ele>
        <time>2023-06-17T07:46:29.000Z</time>
      </trkpt>
      <trkpt lat="41.78419" lon="-70.970305">
        <ele>34.849825</ele>
        <time>2023-06-17T07:46:30.000Z</time>
      </trkpt>
      <trkpt lat="41.784223" lon="-70.97031">
        <ele>34.889804</ele>
        <time>2023-06-17T07:46:30.000Z</time>
      </trkpt>
      <trkpt lat="41.784643" lon="-70.97041">
        <ele>35.333239</ele>
        <time>2023-06-17T07:46:35.000Z</time>
      </trkpt>
      <trkpt lat="41.785249" lon="-70.970559">
        <ele>35.978384</ele>
        <time>2023-06-17T07:46:42.000Z</time>
      </trkpt>
      <trkpt lat="41.785461" lon="-70.970617">
        <ele>36.220647</ele>
        <time>2023-06-17T07:46:44.000Z</time>
      </trkpt>
      <trkpt lat="41.785687" lon="-70.970672">
        <ele>36.328601</ele>
        <time>2023-06-17T07:46:47.000Z</time>
      </trkpt>
      <trkpt lat="41.786147" lon="-70.970783">
        <ele>35.729223</ele>
        <time>2023-06-17T07:46:52.000Z</time>
      </trkpt>
      <trkpt lat="41.786461" lon="-70.970925">
        <ele>35.297205</ele>
        <time>2023-06-17T07:46:56.000Z</time>
      </trkpt>
      <trkpt lat="41.786578" lon="-70.971006">
        <ele>35.127546</ele>
        <time>2023-06-17T07:46:57.000Z</time>
      </trkpt>
      <trkpt lat="41.786859" lon="-70.971257">
        <ele>34.679463</ele>
        <time>2023-06-17T07:47:01.000Z</time>
      </trkpt>
      <trkpt lat="41.787152" lon="-70.971624">
        <ele>34.163134</ele>
        <time>2023-06-17T07:47:05.000Z</time>
      </trkpt>
      <trkpt lat="41.787935" lon="-70.97295">
        <ele>33.158663</ele>
        <time>2023-06-17T07:47:19.000Z</time>
      </trkpt>
      <trkpt lat="41.788524" lon="-70.973919">
        <ele>32.959436</ele>
        <time>2023-06-17T07:47:29.000Z</time>
      </trkpt>
      <trkpt lat="41.789502" lon="-70.975296">
        <ele>34.137168</ele>
        <time>2023-06-17T07:47:45.000Z</time>
      </trkpt>
      <trkpt lat="41.790809" lon="-70.977235">
        <ele>35.727761</ele>
        <time>2023-06-17T07:48:07.000Z</time>
      </trkpt>
      <trkpt lat="41.791421" lon="-70.978164">
        <ele>36.252775</ele>
        <time>2023-06-17T07:48:17.000Z</time>
      </trkpt>
      <trkpt lat="41.791514" lon="-70.978306">
        <ele>36.33136</ele>
        <time>2023-06-17T07:48:19.000Z</time>
      </trkpt>
      <trkpt lat="41.792052" lon="-70.979147">
        <ele>36.745772</ele>
        <time>2023-06-17T07:48:28.000Z</time>
      </trkpt>
      <trkpt lat="41.792658" lon="-70.980091">
        <ele>36.973937</ele>
        <time>2023-06-17T07:48:38.000Z</time>
      </trkpt>
      <trkpt lat="41.792957" lon="-70.980681">
        <ele>37.102042</ele>
        <time>2023-06-17T07:48:44.000Z</time>
      </trkpt>
      <trkpt lat="41.792991" lon="-70.980759">
        <ele>37.121633</ele>
        <time>2023-06-17T07:48:45.000Z</time>
      </trkpt>
      <trkpt lat="41.793183" lon="-70.981332">
        <ele>37.018744</ele>
        <time>2023-06-17T07:48:50.000Z</time>
      </trkpt>
      <trkpt lat="41.793273" lon="-70.981639">
        <ele>36.935666</ele>
        <time>2023-06-17T07:48:53.000Z</time>
      </trkpt>
      <trkpt lat="41.7939" lon="-70.984057">
        <ele>36.028309</ele>
        <time>2023-06-17T07:49:14.000Z</time>
      </trkpt>
      <trkpt lat="41.793987" lon="-70.984341">
        <ele>35.873383</ele>
        <time>2023-06-17T07:49:17.000Z</time>
      </trkpt>
      <trkpt lat="41.794021" lon="-70.984488">
        <ele>35.787395</ele>
        <time>2023-06-17T07:49:18.000Z</time>
      </trkpt>
      <trkpt lat="41.794183" lon="-70.985161">
        <ele>35.419452</ele>
        <time>2023-06-17T07:49:24.000Z</time>
      </trkpt>
      <trkpt lat="41.794211" lon="-70.985294">
        <ele>35.341781</ele>
        <time>2023-06-17T07:49:25.000Z</time>
      </trkpt>
      <trkpt lat="41.794241" lon="-70.985431">
        <ele>35.259799</ele>
        <time>2023-06-17T07:49:26.000Z</time>
      </trkpt>
      <trkpt lat="41.794418" lon="-70.986033">
        <ele>34.556487</ele>
        <time>2023-06-17T07:49:31.000Z</time>
      </trkpt>
      <trkpt lat="41.794527" lon="-70.986508">
        <ele>34.033325</ele>
        <time>2023-06-17T07:49:35.000Z</time>
      </trkpt>
      <trkpt lat="41.79466" lon="-70.987148">
        <ele>33.316503</ele>
        <time>2023-06-17T07:49:41.000Z</time>
      </trkpt>
      <trkpt lat="41.794705" lon="-70.987521">
        <ele>32.906488</ele>
        <time>2023-06-17T07:49:44.000Z</time>
      </trkpt>
      <trkpt lat="41.794727" lon="-70.98888">
        <ele>31.150313</ele>
        <time>2023-06-17T07:49:55.000Z</time>
      </trkpt>
      <trkpt lat="41.794733" lon="-70.989275">
        <ele>30.623025</ele>
        <time>2023-06-17T07:49:58.000Z</time>
      </trkpt>
      <trkpt lat="41.794754" lon="-70.989806">
        <ele>29.902622</ele>
        <time>2023-06-17T07:50:02.000Z</time>
      </trkpt>
      <trkpt lat="41.794851" lon="-70.99033">
        <ele>29.282727</ele>
        <time>2023-06-17T07:50:06.000Z</time>
      </trkpt>
      <trkpt lat="41.795239" lon="-70.991271">
        <ele>28.334029</ele>
        <time>2023-06-17T07:50:15.000Z</time>
      </trkpt>
      <trkpt lat="41.795782" lon="-70.992399">
        <ele>27.341922</ele>
        <time>2023-06-17T07:50:26.000Z</time>
      </trkpt>
      <trkpt lat="41.796365" lon="-70.993413">
        <ele>27.379764</ele>
        <time>2023-06-17T07:50:37.000Z</time>
      </trkpt>
      <trkpt lat="41.797292" lon="-70.994656">
        <ele>28.349169</ele>
        <time>2023-06-17T07:50:52.000Z</time>
      </trkpt>
      <trkpt lat="41.797678" lon="-70.99528">
        <ele>29.255094</ele>
        <time>2023-06-17T07:50:59.000Z</time>
      </trkpt>
      <trkpt lat="41.797793" lon="-70.995574">
        <ele>29.616125</ele>
        <time>2023-06-17T07:51:02.000Z</time>
      </trkpt>
      <trkpt lat="41.797964" lon="-70.99611">
        <ele>30.208472</ele>
        <time>2023-06-17T07:51:07.000Z</time>
      </trkpt>
      <trkpt lat="41.798071" lon="-70.996454">
        <ele>30.480932</ele>
        <time>2023-06-17T07:51:10.000Z</time>
      </trkpt>
      <trkpt lat="41.798331" lon="-70.997195">
        <ele>31.06886</ele>
        <time>2023-06-17T07:51:17.000Z</time>
      </trkpt>
      <trkpt lat="41.798654" lon="-70.997905">
        <ele>31.650527</ele>
        <time>2023-06-17T07:51:24.000Z</time>
      </trkpt>
      <trkpt lat="41.800702" lon="-71.002021">
        <ele>29.459974</ele>
        <time>2023-06-17T07:52:05.000Z</time>
      </trkpt>
      <trkpt lat="41.801457" lon="-71.003907">
        <ele>30.803815</ele>
        <time>2023-06-17T07:52:23.000Z</time>
      </trkpt>
      <trkpt lat="41.802169" lon="-71.005973">
        <ele>32.887059</ele>
        <time>2023-06-17T07:52:42.000Z</time>
      </trkpt>
      <trkpt lat="41.802631" lon="-71.007616">
        <ele>32.836649</ele>
        <time>2023-06-17T07:52:57.000Z</time>
      </trkpt>
      <trkpt lat="41.802663" lon="-71.007791">
        <ele>32.756597</ele>
        <time>2023-06-17T07:52:58.000Z</time>
      </trkpt>
      <trkpt lat="41.802729" lon="-71.008116">
        <ele>32.606618</ele>
        <time>2023-06-17T07:53:01.000Z</time>
      </trkpt>
      <trkpt lat="41.802862" lon="-71.008724">
        <ele>32.331084</ele>
        <time>2023-06-17T07:53:06.000Z</time>
      </trkpt>
      <trkpt lat="41.80311" lon="-71.009909">
        <ele>30.71494</ele>
        <time>2023-06-17T07:53:16.000Z</time>
      </trkpt>
      <trkpt lat="41.803287" lon="-71.010803">
        <ele>29.475613</ele>
        <time>2023-06-17T07:53:24.000Z</time>
      </trkpt>
      <trkpt lat="41.803414" lon="-71.011452">
        <ele>28.700504</ele>
        <time>2023-06-17T07:53:30.000Z</time>
      </trkpt>
      <trkpt lat="41.803461" lon="-71.011742">
        <ele>28.399296</ele>
        <time>2023-06-17T07:53:32.000Z</time>
      </trkpt>
      <trkpt lat="41.803509" lon="-71.012124">
        <ele>28.003407</ele>
        <time>2023-06-17T07:53:35.000Z</time>
      </trkpt>
      <trkpt lat="41.803523" lon="-71.012466">
        <ele>27.651613</ele>
        <time>2023-06-17T07:53:38.000Z</time>
      </trkpt>
      <trkpt lat="41.803473" lon="-71.013102">
        <ele>26.978995</ele>
        <time>2023-06-17T07:53:43.000Z</time>
      </trkpt>
      <trkpt lat="41.80331" lon="-71.013761">
        <ele>26.57195</ele>
        <time>2023-06-17T07:53:49.000Z</time>
      </trkpt>
      <trkpt lat="41.803564" lon="-71.01421">
        <ele>26.487557</ele>
        <time>2023-06-17T07:53:54.000Z</time>
      </trkpt>
      <trkpt lat="41.804676" lon="-71.016656">
        <ele>25.657024</ele>
        <time>2023-06-17T07:54:18.000Z</time>
      </trkpt>
      <trkpt lat="41.804797" lon="-71.016914">
        <ele>25.517613</ele>
        <time>2023-06-17T07:54:21.000Z</time>
      </trkpt>
      <trkpt lat="41.805842" lon="-71.01911">
        <ele>22.690182</ele>
        <time>2023-06-17T07:54:43.000Z</time>
      </trkpt>
      <trkpt lat="41.806668" lon="-71.020842">
        <ele>20.048057</ele>
        <time>2023-06-17T07:55:00.000Z</time>
      </trkpt>
      <trkpt lat="41.807525" lon="-71.022606">
        <ele>19.562613</ele>
        <time>2023-06-17T07:55:17.000Z</time>
      </trkpt>
      <trkpt lat="41.809849" lon="-71.027382">
        <ele>23.37862</ele>
        <time>2023-06-17T07:56:04.000Z</time>
      </trkpt>
      <trkpt lat="41.810489" lon="-71.028579">
        <ele>23.077954</ele>
        <time>2023-06-17T07:56:16.000Z</time>
      </trkpt>
      <trkpt lat="41.811317" lon="-71.029658">
        <ele>22.240874</ele>
        <time>2023-06-17T07:56:29.000Z</time>
      </trkpt>
      <trkpt lat="41.811633" lon="-71.029846">
        <ele>21.959989</ele>
        <time>2023-06-17T07:56:33.000Z</time>
      </trkpt>
      <trkpt lat="41.811956" lon="-71.029914">
        <ele>21.690922</ele>
        <time>2023-06-17T07:56:37.000Z</time>
      </trkpt>
      <trkpt lat="41.812113" lon="-71.029905">
        <ele>21.56716</ele>
        <time>2023-06-17T07:56:39.000Z</time>
      </trkpt>
      <trkpt lat="41.813069" lon="-71.029706">
        <ele>20.929542</ele>
        <time>2023-06-17T07:56:50.000Z</time>
      </trkpt>
      <trkpt lat="41.815082" lon="-71.029272">
        <ele>20.437938</ele>
        <time>2023-06-17T07:57:13.000Z</time>
      </trkpt>
      <trkpt lat="41.816239" lon="-71.028996">
        <ele>19.440321</ele>
        <time>2023-06-17T07:57:26.000Z</time>
      </trkpt>
      <trkpt lat="41.816638" lon="-71.028873">
        <ele>19.047581</ele>
        <time>2023-06-17T07:57:31.000Z</time>
      </trkpt>
      <trkpt lat="41.816644" lon="-71.028866">
        <ele>19.039593</ele>
        <time>2023-06-17T07:57:31.000Z</time>
      </trkpt>
      <trkpt lat="41.817271" lon="-71.028622">
        <ele>18.308851</ele>
        <time>2023-06-17T07:57:38.000Z</time>
      </trkpt>
      <trkpt lat="41.818045" lon="-71.028207">
        <ele>17.372997</ele>
        <time>2023-06-17T07:57:47.000Z</time>
      </trkpt>
      <trkpt lat="41.818822" lon="-71.027788">
        <ele>16.44481</ele>
        <time>2023-06-17T07:57:56.000Z</time>
      </trkpt>
      <trkpt lat="41.819099" lon="-71.027618">
        <ele>16.115003</ele>
        <time>2023-06-17T07:57:59.000Z</time>
      </trkpt>
      <trkpt lat="41.819842" lon="-71.027202">
        <ele>15.238382</ele>
        <time>2023-06-17T07:58:08.000Z</time>
      </trkpt>
      <trkpt lat="41.82002" lon="-71.027105">
        <ele>15.101213</ele>
        <time>2023-06-17T07:58:10.000Z</time>
      </trkpt>
      <trkpt lat="41.820049" lon="-71.027086">
        <ele>15.075603</ele>
        <time>2023-06-17T07:58:10.000Z</time>
      </trkpt>
      <trkpt lat="41.82144" lon="-71.026294">
        <ele>14.001012</ele>
        <time>2023-06-17T07:58:27.000Z</time>
      </trkpt>
      <trkpt lat="41.822113" lon="-71.0258">
        <ele>14.015454</ele>
        <time>2023-06-17T07:58:36.000Z</time>
      </trkpt>
      <trkpt lat="41.822728" lon="-71.025169">
        <ele>14.041884</ele>
        <time>2023-06-17T07:58:45.000Z</time>
      </trkpt>
      <trkpt lat="41.826238" lon="-71.021199">
        <ele>14.674162</ele>
        <time>2023-06-17T07:59:36.000Z</time>
      </trkpt>
      <trkpt lat="41.826596" lon="-71.020742">
        <ele>14.676243</ele>
        <time>2023-06-17T07:59:41.000Z</time>
      </trkpt>
      <trkpt lat="41.826476" lon="-71.02058">
        <ele>14.676931</ele>
        <time>2023-06-17T07:59:43.000Z</time>
      </trkpt>
      <trkpt lat="41.82626" lon="-71.020226">
        <ele>14.678347</ele>
        <time>2023-06-17T07:59:47.000Z</time>
      </trkpt>
      <trkpt lat="41.82608" lon="-71.019637">
        <ele>14.996973</ele>
        <time>2023-06-17T07:59:52.000Z</time>
      </trkpt>
      <trkpt lat="41.826018" lon="-71.019345">
        <ele>15.17261</ele>
        <time>2023-06-17T07:59:55.000Z</time>
      </trkpt>
      <trkpt lat="41.825966" lon="-71.019058">
        <ele>15.343299</ele>
        <time>2023-06-17T07:59:57.000Z</time>
      </trkpt>
      <trkpt lat="41.825708" lon="-71.018076">
        <ele>15.951099</ele>
        <time>2023-06-17T08:00:06.000Z</time>
      </trkpt>
      <trkpt lat="41.825565" lon="-71.017728">
        <ele>16.462977</ele>
        <time>2023-06-17T08:00:09.000Z</time>
      </trkpt>
      <trkpt lat="41.825329" lon="-71.017381">
        <ele>17.522248</ele>
        <time>2023-06-17T08:00:13.000Z</time>
      </trkpt>
      <trkpt lat="41.824868" lon="-71.016524">
        <ele>19.90921</ele>
        <time>2023-06-17T08:00:22.000Z</time>
      </trkpt>
      <trkpt lat="41.824574" lon="-71.015857">
        <ele>21.673248</ele>
        <time>2023-06-17T08:00:28.000Z</time>
      </trkpt>
      <trkpt lat="41.824101" lon="-71.014529">
        <ele>25.322106</ele>
        <time>2023-06-17T08:00:40.000Z</time>
      </trkpt>
      <trkpt lat="41.823819" lon="-71.014028">
        <ele>26.878034</ele>
        <time>2023-06-17T08:00:45.000Z</time>
      </trkpt>
      <trkpt lat="41.823749" lon="-71.01392">
        <ele>27.251632</ele>
        <time>2023-06-17T08:00:46.000Z</time>
      </trkpt>
      <trkpt lat="41.823399" lon="-71.013287">
        <ele>28.141632</ele>
        <time>2023-06-17T08:00:53.000Z</time>
      </trkpt>
      <trkpt lat="41.822092" lon="-71.01162">
        <ele>30.060106</ele>
        <time>2023-06-17T08:01:13.000Z</time>
      </trkpt>
      <trkpt lat="41.821086" lon="-71.010373">
        <ele>31.177393</ele>
        <time>2023-06-17T08:01:28.000Z</time>
      </trkpt>
      <trkpt lat="41.82071" lon="-71.009664">
        <ele>32.051696</ele>
        <time>2023-06-17T08:01:35.000Z</time>
      </trkpt>
      <trkpt lat="41.819888" lon="-71.007708">
        <ele>34.579843</ele>
        <time>2023-06-17T08:01:54.000Z</time>
      </trkpt>
      <trkpt lat="41.819511" lon="-71.00636">
        <ele>36.492559</ele>
        <time>2023-06-17T08:02:06.000Z</time>
      </trkpt>
      <trkpt lat="41.819277" lon="-71.005248">
        <ele>37.420318</ele>
        <time>2023-06-17T08:02:16.000Z</time>
      </trkpt>
      <trkpt lat="41.819096" lon="-71.004715">
        <ele>37.830657</ele>
        <time>2023-06-17T08:02:21.000Z</time>
      </trkpt>
      <trkpt lat="41.818712" lon="-71.003714">
        <ele>37.887736</ele>
        <time>2023-06-17T08:02:30.000Z</time>
      </trkpt>
      <trkpt lat="41.818583" lon="-71.003296">
        <ele>36.995462</ele>
        <time>2023-06-17T08:02:34.000Z</time>
      </trkpt>
      <trkpt lat="41.818433" lon="-71.002962">
        <ele>36.237666</ele>
        <time>2023-06-17T08:02:37.000Z</time>
      </trkpt>
      <trkpt lat="41.817825" lon="-71.002078">
        <ele>33.886607</ele>
        <time>2023-06-17T08:02:47.000Z</time>
      </trkpt>
      <trkpt lat="41.817593" lon="-71.001578">
        <ele>32.02284</ele>
        <time>2023-06-17T08:02:52.000Z</time>
      </trkpt>
      <trkpt lat="41.817375" lon="-71.001252">
        <ele>30.604124</ele>
        <time>2023-06-17T08:02:56.000Z</time>
      </trkpt>
      <trkpt lat="41.817209" lon="-71.001055">
        <ele>29.67048</ele>
        <time>2023-06-17T08:02:58.000Z</time>
      </trkpt>
      <trkpt lat="41.816941" lon="-71.00073">
        <ele>28.029847</ele>
        <time>2023-06-17T08:03:02.000Z</time>
      </trkpt>
      <trkpt lat="41.816693" lon="-71.000333">
        <ele>26.33134</ele>
        <time>2023-06-17T08:03:06.000Z</time>
      </trkpt>
      <trkpt lat="41.815824" lon="-70.999464">
        <ele>23.148389</ele>
        <time>2023-06-17T08:03:18.000Z</time>
      </trkpt>
      <trkpt lat="41.815635" lon="-70.999264">
        <ele>22.500187</ele>
        <time>2023-06-17T08:03:21.000Z</time>
      </trkpt>
      <trkpt lat="41.815535" lon="-70.999186">
        <ele>22.218043</ele>
        <time>2023-06-17T08:03:22.000Z</time>
      </trkpt>
      <trkpt lat="41.814135" lon="-70.997925">
        <ele>20.863019</ele>
        <time>2023-06-17T08:03:41.000Z</time>
      </trkpt>
      <trkpt lat="41.813639" lon="-70.997148">
        <ele>21.144474</ele>
        <time>2023-06-17T08:03:49.000Z</time>
      </trkpt>
      <trkpt lat="41.813456" lon="-70.996563">
        <ele>22.054623</ele>
        <time>2023-06-17T08:03:54.000Z</time>
      </trkpt>
      <trkpt lat="41.813265" lon="-70.99367">
        <ele>25.593422</ele>
        <time>2023-06-17T08:04:18.000Z</time>
      </trkpt>
      <trkpt lat="41.813259" lon="-70.992699">
        <ele>26.557731</ele>
        <time>2023-06-17T08:04:26.000Z</time>
      </trkpt>
      <trkpt lat="41.813311" lon="-70.991916">
        <ele>26.990999</ele>
        <time>2023-06-17T08:04:33.000Z</time>
      </trkpt>
      <trkpt lat="41.813552" lon="-70.990454">
        <ele>27.728648</ele>
        <time>2023-06-17T08:04:45.000Z</time>
      </trkpt>
      <trkpt lat="41.81357" lon="-70.990382">
        <ele>27.758629</ele>
        <time>2023-06-17T08:04:46.000Z</time>
      </trkpt>
      <trkpt lat="41.81373" lon="-70.989484">
        <ele>29.169805</ele>
        <time>2023-06-17T08:04:54.000Z</time>
      </trkpt>
      <trkpt lat="41.814142" lon="-70.986152">
        <ele>35.297739</ele>
        <time>2023-06-17T08:05:22.000Z</time>
      </trkpt>
      <trkpt lat="41.814107" lon="-70.985606">
        <ele>36.329241</ele>
        <time>2023-06-17T08:05:27.000Z</time>
      </trkpt>
      <trkpt lat="41.814008" lon="-70.985087">
        <ele>36.494104</ele>
        <time>2023-06-17T08:05:31.000Z</time>
      </trkpt>
      <trkpt lat="41.814301" lon="-70.98468">
        <ele>36.367872</ele>
        <time>2023-06-17T08:05:36.000Z</time>
      </trkpt>
      <trkpt lat="41.815201" lon="-70.983561">
        <ele>35.749117</ele>
        <time>2023-06-17T08:05:50.000Z</time>
      </trkpt>
      <trkpt lat="41.815367" lon="-70.983428">
        <ele>35.357442</ele>
        <time>2023-06-17T08:05:52.000Z</time>
      </trkpt>
      <trkpt lat="41.816793" lon="-70.982518">
        <ele>32.385033</ele>
        <time>2023-06-17T08:06:10.000Z</time>
      </trkpt>
      <trkpt lat="41.817218" lon="-70.982307">
        <ele>32.039884</ele>
        <time>2023-06-17T08:06:15.000Z</time>
      </trkpt>
      <trkpt lat="41.817704" lon="-70.982059">
        <ele>31.640541</ele>
        <time>2023-06-17T08:06:21.000Z</time>
      </trkpt>
      <trkpt lat="41.818279" lon="-70.981713">
        <ele>31.15207</ele>
        <time>2023-06-17T08:06:28.000Z</time>
      </trkpt>
      <trkpt lat="41.818936" lon="-70.981291">
        <ele>31.115773</ele>
        <time>2023-06-17T08:06:36.000Z</time>
      </trkpt>
      <trkpt lat="41.819107" lon="-70.981171">
        <ele>31.120161</ele>
        <time>2023-06-17T08:06:38.000Z</time>
      </trkpt>
      <trkpt lat="41.820319" lon="-70.980107">
        <ele>31.462439</ele>
        <time>2023-06-17T08:06:54.000Z</time>
      </trkpt>
      <trkpt lat="41.820434" lon="-70.980042">
        <ele>31.552543</ele>
        <time>2023-06-17T08:06:55.000Z</time>
      </trkpt>
      <trkpt lat="41.820678" lon="-70.980013">
        <ele>31.710929</ele>
        <time>2023-06-17T08:06:58.000Z</time>
      </trkpt>
      <trkpt lat="41.821315" lon="-70.980096">
        <ele>32.115979</ele>
        <time>2023-06-17T08:07:05.000Z</time>
      </trkpt>
      <trkpt lat="41.822659" lon="-70.980477">
        <ele>33.464171</ele>
        <time>2023-06-17T08:07:20.000Z</time>
      </trkpt>
      <trkpt lat="41.823074" lon="-70.980609">
        <ele>33.922923</ele>
        <time>2023-06-17T08:07:25.000Z</time>
      </trkpt>
      <trkpt lat="41.823791" lon="-70.980843">
        <ele>34.681141</ele>
        <time>2023-06-17T08:07:33.000Z</time>
      </trkpt>
      <trkpt lat="41.823883" lon="-70.980871">
        <ele>34.763304</ele>
        <time>2023-06-17T08:07:34.000Z</time>
      </trkpt>
      <trkpt lat="41.824088" lon="-70.980933">
        <ele>34.972385</ele>
        <time>2023-06-17T08:07:36.000Z</time>
      </trkpt>
      <trkpt lat="41.824083" lon="-70.980927">
        <ele>34.981453</ele>
        <time>2023-06-17T08:07:36.000Z</time>
      </trkpt>
      <trkpt lat="41.824771" lon="-70.981118">
        <ele>35.683095</ele>
        <time>2023-06-17T08:07:44.000Z</time>
      </trkpt>
      <trkpt lat="41.82545" lon="-70.981343">
        <ele>36.560468</ele>
        <time>2023-06-17T08:07:52.000Z</time>
      </trkpt>
      <trkpt lat="41.825769" lon="-70.981485">
        <ele>37.091779</ele>
        <time>2023-06-17T08:07:56.000Z</time>
      </trkpt>
      <trkpt lat="41.826265" lon="-70.981788">
        <ele>37.940815</ele>
        <time>2023-06-17T08:08:02.000Z</time>
      </trkpt>
      <trkpt lat="41.826602" lon="-70.982091">
        <ele>38.578691</ele>
        <time>2023-06-17T08:08:07.000Z</time>
      </trkpt>
      <trkpt lat="41.826781" lon="-70.982329">
        <ele>38.954664</ele>
        <time>2023-06-17T08:08:10.000Z</time>
      </trkpt>
      <trkpt lat="41.826904" lon="-70.982554">
        <ele>39.228915</ele>
        <time>2023-06-17T08:08:12.000Z</time>
      </trkpt>
      <trkpt lat="41.827419" lon="-70.983637">
        <ele>40.514801</ele>
        <time>2023-06-17T08:08:23.000Z</time>
      </trkpt>
      <trkpt lat="41.827882" lon="-70.984556">
        <ele>41.461428</ele>
        <time>2023-06-17T08:08:32.000Z</time>
      </trkpt>
      <trkpt lat="41.828106" lon="-70.984353">
        <ele>41.665748</ele>
        <time>2023-06-17T08:08:35.000Z</time>
      </trkpt>
      <trkpt lat="41.828646" lon="-70.983886">
        <ele>42.130231</ele>
        <time>2023-06-17T08:08:42.000Z</time>
      </trkpt>
      <trkpt lat="41.829013" lon="-70.983421">
        <ele>42.498152</ele>
        <time>2023-06-17T08:08:48.000Z</time>
      </trkpt>
      <trkpt lat="41.829126" lon="-70.983115">
        <ele>42.606688</ele>
        <time>2023-06-17T08:08:51.000Z</time>
      </trkpt>
      <trkpt lat="41.829187" lon="-70.982768">
        <ele>42.671375</ele>
        <time>2023-06-17T08:08:54.000Z</time>
      </trkpt>
      <trkpt lat="41.829253" lon="-70.982252">
        <ele>42.766355</ele>
        <time>2023-06-17T08:08:58.000Z</time>
      </trkpt>
      <trkpt lat="41.829328" lon="-70.981831">
        <ele>42.844517</ele>
        <time>2023-06-17T08:09:02.000Z</time>
      </trkpt>
      <trkpt lat="41.829344" lon="-70.98162">
        <ele>42.882811</ele>
        <time>2023-06-17T08:09:04.000Z</time>
      </trkpt>
      <trkpt lat="41.829371" lon="-70.981547">
        <ele>42.897436</ele>
        <time>2023-06-17T08:09:05.000Z</time>
      </trkpt>
      <trkpt lat="41.829406" lon="-70.981308">
        <ele>42.94452</ele>
        <time>2023-06-17T08:09:07.000Z</time>
      </trkpt>
      <trkpt lat="41.829596" lon="-70.980689">
        <ele>42.815929</ele>
        <time>2023-06-17T08:09:13.000Z</time>
      </trkpt>
      <trkpt lat="41.829794" lon="-70.980268">
        <ele>42.506437</ele>
        <time>2023-06-17T08:09:17.000Z</time>
      </trkpt>
      <trkpt lat="41.830113" lon="-70.979543">
        <ele>41.999034</ele>
        <time>2023-06-17T08:09:24.000Z</time>
      </trkpt>
      <trkpt lat="41.830188" lon="-70.979019">
        <ele>41.678745</ele>
        <time>2023-06-17T08:09:28.000Z</time>
      </trkpt>
      <trkpt lat="41.830207" lon="-70.978736">
        <ele>41.465668</ele>
        <time>2023-06-17T08:09:30.000Z</time>
      </trkpt>
      <trkpt lat="41.83019" lon="-70.978655">
        <ele>41.369453</ele>
        <time>2023-06-17T08:09:31.000Z</time>
      </trkpt>
      <trkpt lat="41.830216" lon="-70.977461">
        <ele>39.949175</ele>
        <time>2023-06-17T08:09:41.000Z</time>
      </trkpt>
      <trkpt lat="41.830251" lon="-70.977262">
        <ele>39.714915</ele>
        <time>2023-06-17T08:09:43.000Z</time>
      </trkpt>
      <trkpt lat="41.830406" lon="-70.976797">
        <ele>39.124316</ele>
        <time>2023-06-17T08:09:47.000Z</time>
      </trkpt>
      <trkpt lat="41.830479" lon="-70.976639">
        <ele>38.885636</ele>
        <time>2023-06-17T08:09:49.000Z</time>
      </trkpt>
      <trkpt lat="41.830639" lon="-70.976365">
        <ele>38.531932</ele>
        <time>2023-06-17T08:09:52.000Z</time>
      </trkpt>
      <trkpt lat="41.831095" lon="-70.975843">
        <ele>37.868617</ele>
        <time>2023-06-17T08:09:59.000Z</time>
      </trkpt>
      <trkpt lat="41.831207" lon="-70.975749">
        <ele>37.725054</ele>
        <time>2023-06-17T08:10:00.000Z</time>
      </trkpt>
      <trkpt lat="41.831448" lon="-70.97548">
        <ele>37.37273</ele>
        <time>2023-06-17T08:10:03.000Z</time>
      </trkpt>
      <trkpt lat="41.832008" lon="-70.975004">
        <ele>36.626741</ele>
        <time>2023-06-17T08:10:10.000Z</time>
      </trkpt>
      <trkpt lat="41.832579" lon="-70.974521">
        <ele>35.828567</ele>
        <time>2023-06-17T08:10:18.000Z</time>
      </trkpt>
      <trkpt lat="41.833105" lon="-70.97389">
        <ele>35.007283</ele>
        <time>2023-06-17T08:10:26.000Z</time>
      </trkpt>
      <trkpt lat="41.833717" lon="-70.972848">
        <ele>33.634959</ele>
        <time>2023-06-17T08:10:37.000Z</time>
      </trkpt>
      <trkpt lat="41.833882" lon="-70.97252">
        <ele>33.200721</ele>
        <time>2023-06-17T08:10:40.000Z</time>
      </trkpt>
      <trkpt lat="41.833965" lon="-70.972157">
        <ele>32.779062</ele>
        <time>2023-06-17T08:10:43.000Z</time>
      </trkpt>
      <trkpt lat="41.834038" lon="-70.970939">
        <ele>31.472373</ele>
        <time>2023-06-17T08:10:53.000Z</time>
      </trkpt>
      <trkpt lat="41.834225" lon="-70.970165">
        <ele>30.649874</ele>
        <time>2023-06-17T08:11:00.000Z</time>
      </trkpt>
      <trkpt lat="41.834629" lon="-70.969099">
        <ele>29.455129</ele>
        <time>2023-06-17T08:11:10.000Z</time>
      </trkpt>
      <trkpt lat="41.836651" lon="-70.964208">
        <ele>29.459755</ele>
        <time>2023-06-17T08:11:56.000Z</time>
      </trkpt>
      <trkpt lat="41.836922" lon="-70.963146">
        <ele>30.411849</ele>
        <time>2023-06-17T08:12:05.000Z</time>
      </trkpt>
      <trkpt lat="41.837267" lon="-70.961455">
        <ele>33.914255</ele>
        <time>2023-06-17T08:12:20.000Z</time>
      </trkpt>
      <trkpt lat="41.837384" lon="-70.96082">
        <ele>35.526399</ele>
        <time>2023-06-17T08:12:25.000Z</time>
      </trkpt>
      <trkpt lat="41.837518" lon="-70.960361">
        <ele>36.743928</ele>
        <time>2023-06-17T08:12:29.000Z</time>
      </trkpt>
      <trkpt lat="41.837652" lon="-70.960053">
        <ele>37.67533</ele>
        <time>2023-06-17T08:12:32.000Z</time>
      </trkpt>
      <trkpt lat="41.837839" lon="-70.959831">
        <ele>38.526776</ele>
        <time>2023-06-17T08:12:35.000Z</time>
      </trkpt>
      <trkpt lat="41.838086" lon="-70.959621">
        <ele>39.503517</ele>
        <time>2023-06-17T08:12:38.000Z</time>
      </trkpt>
      <trkpt lat="41.838554" lon="-70.959323">
        <ele>41.287876</ele>
        <time>2023-06-17T08:12:44.000Z</time>
      </trkpt>
      <trkpt lat="41.838663" lon="-70.959282">
        <ele>41.64018</ele>
        <time>2023-06-17T08:12:45.000Z</time>
      </trkpt>
      <trkpt lat="41.838968" lon="-70.959094">
        <ele>42.77725</ele>
        <time>2023-06-17T08:12:49.000Z</time>
      </trkpt>
      <trkpt lat="41.839719" lon="-70.958661">
        <ele>42.763567</ele>
        <time>2023-06-17T08:12:58.000Z</time>
      </trkpt>
      <trkpt lat="41.840433" lon="-70.958225">
        <ele>42.511477</ele>
        <time>2023-06-17T08:13:07.000Z</time>
      </trkpt>
      <trkpt lat="41.840721" lon="-70.958059">
        <ele>42.306253</ele>
        <time>2023-06-17T08:13:10.000Z</time>
      </trkpt>
      <trkpt lat="41.840762" lon="-70.958034">
        <ele>42.1856</ele>
        <time>2023-06-17T08:13:11.000Z</time>
      </trkpt>
      <trkpt lat="41.84201" lon="-70.957294">
        <ele>38.911941</ele>
        <time>2023-06-17T08:13:26.000Z</time>
      </trkpt>
      <trkpt lat="41.843742" lon="-70.956271">
        <ele>35.054162</ele>
        <time>2023-06-17T08:13:47.000Z</time>
      </trkpt>
      <trkpt lat="41.844009" lon="-70.956109">
        <ele>34.479916</ele>
        <time>2023-06-17T08:13:50.000Z</time>
      </trkpt>
      <trkpt lat="41.844634" lon="-70.955738">
        <ele>32.871684</ele>
        <time>2023-06-17T08:13:58.000Z</time>
      </trkpt>
      <trkpt lat="41.845007" lon="-70.955412">
        <ele>31.823448</ele>
        <time>2023-06-17T08:14:03.000Z</time>
      </trkpt>
      <trkpt lat="41.845092" lon="-70.955268">
        <ele>31.49864</ele>
        <time>2023-06-17T08:14:05.000Z</time>
      </trkpt>
      <trkpt lat="41.845114" lon="-70.955221">
        <ele>31.402582</ele>
        <time>2023-06-17T08:14:05.000Z</time>
      </trkpt>
      <trkpt lat="41.845437" lon="-70.954657">
        <ele>30.256642</ele>
        <time>2023-06-17T08:14:11.000Z</time>
      </trkpt>
      <trkpt lat="41.843965" lon="-70.952856">
        <ele>28.695343</ele>
        <time>2023-06-17T08:14:33.000Z</time>
      </trkpt>
      <trkpt lat="41.843461" lon="-70.952388">
        <ele>29.034842</ele>
        <time>2023-06-17T08:14:40.000Z</time>
      </trkpt>
      <trkpt lat="41.841336" lon="-70.951131">
        <ele>32.11373</ele>
        <time>2023-06-17T08:15:06.000Z</time>
      </trkpt>
      <trkpt lat="41.840775" lon="-70.95194">
        <ele>34.308766</ele>
        <time>2023-06-17T08:15:15.000Z</time>
      </trkpt>
      <trkpt lat="41.840279" lon="-70.9522">
        <ele>36.10613</ele>
        <time>2023-06-17T08:15:21.000Z</time>
      </trkpt>
      <trkpt lat="41.83972" lon="-70.952235">
        <ele>38.055819</ele>
        <time>2023-06-17T08:15:27.000Z</time>
      </trkpt>
      <trkpt lat="41.838615" lon="-70.951925">
        <ele>40.44252</ele>
        <time>2023-06-17T08:15:40.000Z</time>
      </trkpt>
      <trkpt lat="41.838056" lon="-70.951684">
        <ele>41.445072</ele>
        <time>2023-06-17T08:15:47.000Z</time>
      </trkpt>
      <trkpt lat="41.837907" lon="-70.951618">
        <ele>41.712956</ele>
        <time>2023-06-17T08:15:49.000Z</time>
      </trkpt>
      <trkpt lat="41.837756" lon="-70.951448">
        <ele>41.998015</ele>
        <time>2023-06-17T08:15:51.000Z</time>
      </trkpt>
      <trkpt lat="41.83769" lon="-70.951296">
        <ele>41.575474</ele>
        <time>2023-06-17T08:15:52.000Z</time>
      </trkpt>
      <trkpt lat="41.837494" lon="-70.950369">
        <ele>39.406015</ele>
        <time>2023-06-17T08:16:00.000Z</time>
      </trkpt>
      <trkpt lat="41.837225" lon="-70.94974">
        <ele>37.746682</ele>
        <time>2023-06-17T08:16:06.000Z</time>
      </trkpt>
      <trkpt lat="41.837203" lon="-70.949715">
        <ele>37.670197</ele>
        <time>2023-06-17T08:16:06.000Z</time>
      </trkpt>
      <trkpt lat="41.837133" lon="-70.949596">
        <ele>37.340101</ele>
        <time>2023-06-17T08:16:07.000Z</time>
      </trkpt>
      <trkpt lat="41.836333" lon="-70.948323">
        <ele>32.658841</ele>
        <time>2023-06-17T08:16:21.000Z</time>
      </trkpt>
      <trkpt lat="41.835883" lon="-70.947868">
        <ele>30.416802</ele>
        <time>2023-06-17T08:16:27.000Z</time>
      </trkpt>
      <trkpt lat="41.835302" lon="-70.94741">
        <ele>28.126052</ele>
        <time>2023-06-17T08:16:34.000Z</time>
      </trkpt>
      <trkpt lat="41.833885" lon="-70.946383">
        <ele>23.207076</ele>
        <time>2023-06-17T08:16:52.000Z</time>
      </trkpt>
      <trkpt lat="41.834618" lon="-70.945297">
        <ele>20.080815</ele>
        <time>2023-06-17T08:17:04.000Z</time>
      </trkpt>
      <trkpt lat="41.834942" lon="-70.944433">
        <ele>18.44375</ele>
        <time>2023-06-17T08:17:12.000Z</time>
      </trkpt>
      <trkpt lat="41.835152" lon="-70.943574">
        <ele>17.658138</ele>
        <time>2023-06-17T08:17:19.000Z</time>
      </trkpt>
      <trkpt lat="41.835194" lon="-70.94325">
        <ele>17.380342</ele>
        <time>2023-06-17T08:17:22.000Z</time>
      </trkpt>
      <trkpt lat="41.835154" lon="-70.943038">
        <ele>17.193708</ele>
        <time>2023-06-17T08:17:24.000Z</time>
      </trkpt>
      <trkpt lat="41.835073" lon="-70.942878">
        <ele>17.017286</ele>
        <time>2023-06-17T08:17:26.000Z</time>
      </trkpt>
      <trkpt lat="41.834401" lon="-70.942601">
        <ele>16.716905</ele>
        <time>2023-06-17T08:17:34.000Z</time>
      </trkpt>
      <trkpt lat="41.834077" lon="-70.942399">
        <ele>16.79059</ele>
        <time>2023-06-17T08:17:38.000Z</time>
      </trkpt>
      <trkpt lat="41.833682" lon="-70.94199">
        <ele>16.893741</ele>
        <time>2023-06-17T08:17:44.000Z</time>
      </trkpt>
      <trkpt lat="41.833365" lon="-70.941527">
        <ele>16.987744</ele>
        <time>2023-06-17T08:17:49.000Z</time>
      </trkpt>
      <trkpt lat="41.833204" lon="-70.94122">
        <ele>17.036975</ele>
        <time>2023-06-17T08:17:52.000Z</time>
      </trkpt>
      <trkpt lat="41.832899" lon="-70.94048">
        <ele>17.148735</ele>
        <time>2023-06-17T08:17:59.000Z</time>
      </trkpt>
      <trkpt lat="41.832798" lon="-70.939852">
        <ele>17.230918</ele>
        <time>2023-06-17T08:18:04.000Z</time>
      </trkpt>
      <trkpt lat="41.832841" lon="-70.939336">
        <ele>17.298824</ele>
        <time>2023-06-17T08:18:08.000Z</time>
      </trkpt>
      <trkpt lat="41.833158" lon="-70.93748">
        <ele>16.867578</ele>
        <time>2023-06-17T08:18:24.000Z</time>
      </trkpt>
      <trkpt lat="41.833149" lon="-70.936955">
        <ele>16.732814</ele>
        <time>2023-06-17T08:18:28.000Z</time>
      </trkpt>
      <trkpt lat="41.833033" lon="-70.936491">
        <ele>16.668283</ele>
        <time>2023-06-17T08:18:32.000Z</time>
      </trkpt>
      <trkpt lat="41.83281" lon="-70.936024">
        <ele>16.625086</ele>
        <time>2023-06-17T08:18:37.000Z</time>
      </trkpt>
      <trkpt lat="41.832021" lon="-70.935028">
        <ele>16.513538</ele>
        <time>2023-06-17T08:18:49.000Z</time>
      </trkpt>
      <trkpt lat="41.830686" lon="-70.933103">
        <ele>18.025995</ele>
        <time>2023-06-17T08:19:11.000Z</time>
      </trkpt>
      <trkpt lat="41.830114" lon="-70.932494">
        <ele>19.074475</ele>
        <time>2023-06-17T08:19:19.000Z</time>
      </trkpt>
      <trkpt lat="41.829375" lon="-70.93182">
        <ele>20.347095</ele>
        <time>2023-06-17T08:19:29.000Z</time>
      </trkpt>
      <trkpt lat="41.828241" lon="-70.930809">
        <ele>21.990501</ele>
        <time>2023-06-17T08:19:44.000Z</time>
      </trkpt>
      <trkpt lat="41.828199" lon="-70.930753">
        <ele>22.062023</ele>
        <time>2023-06-17T08:19:45.000Z</time>
      </trkpt>
      <trkpt lat="41.827601" lon="-70.930303">
        <ele>22.787137</ele>
        <time>2023-06-17T08:19:53.000Z</time>
      </trkpt>
      <trkpt lat="41.826481" lon="-70.929536">
        <ele>23.849844</ele>
        <time>2023-06-17T08:20:07.000Z</time>
      </trkpt>
      <trkpt lat="41.825812" lon="-70.929099">
        <ele>24.158964</ele>
        <time>2023-06-17T08:20:15.000Z</time>
      </trkpt>
      <trkpt lat="41.825081" lon="-70.928589">
        <ele>24.284301</ele>
        <time>2023-06-17T08:20:24.000Z</time>
      </trkpt>
      <trkpt lat="41.824246" lon="-70.928047">
        <ele>24.303564</ele>
        <time>2023-06-17T08:20:34.000Z</time>
      </trkpt>
      <trkpt lat="41.823751" lon="-70.927727">
        <ele>24.221189</ele>
        <time>2023-06-17T08:20:40.000Z</time>
      </trkpt>
      <trkpt lat="41.823302" lon="-70.927452">
        <ele>24.14653</ele>
        <time>2023-06-17T08:20:45.000Z</time>
      </trkpt>
      <trkpt lat="41.823189" lon="-70.927388">
        <ele>24.129243</ele>
        <time>2023-06-17T08:20:46.000Z</time>
      </trkpt>
      <trkpt lat="41.823054" lon="-70.92732">
        <ele>24.1092</ele>
        <time>2023-06-17T08:20:48.000Z</time>
      </trkpt>
      <trkpt lat="41.822959" lon="-70.927264">
        <ele>24.0982</ele>
        <time>2023-06-17T08:20:49.000Z</time>
      </trkpt>
      <trkpt lat="41.822846" lon="-70.927209">
        <ele>24.116644</ele>
        <time>2023-06-17T08:20:50.000Z</time>
      </trkpt>
      <trkpt lat="41.8226" lon="-70.927091">
        <ele>24.155889</ele>
        <time>2023-06-17T08:20:53.000Z</time>
      </trkpt>
      <trkpt lat="41.822189" lon="-70.926886">
        <ele>24.223675</ele>
        <time>2023-06-17T08:20:58.000Z</time>
      </trkpt>
      <trkpt lat="41.821388" lon="-70.926485">
        <ele>24.359309</ele>
        <time>2023-06-17T08:21:08.000Z</time>
      </trkpt>
      <trkpt lat="41.820968" lon="-70.926262">
        <ele>24.333495</ele>
        <time>2023-06-17T08:21:13.000Z</time>
      </trkpt>
      <trkpt lat="41.820776" lon="-70.926175">
        <ele>24.30998</ele>
        <time>2023-06-17T08:21:15.000Z</time>
      </trkpt>
      <trkpt lat="41.820164" lon="-70.925841">
        <ele>24.230589</ele>
        <time>2023-06-17T08:21:22.000Z</time>
      </trkpt>
      <trkpt lat="41.819794" lon="-70.925624">
        <ele>24.18311</ele>
        <time>2023-06-17T08:21:26.000Z</time>
      </trkpt>
      <trkpt lat="41.818238" lon="-70.924783">
        <ele>24.110349</ele>
        <time>2023-06-17T08:21:45.000Z</time>
      </trkpt>
      <trkpt lat="41.817659" lon="-70.924481">
        <ele>24.136467</ele>
        <time>2023-06-17T08:21:52.000Z</time>
      </trkpt>
      <trkpt lat="41.817175" lon="-70.924225">
        <ele>24.197872</ele>
        <time>2023-06-17T08:21:58.000Z</time>
      </trkpt>
      <trkpt lat="41.816777" lon="-70.923996">
        <ele>24.251236</ele>
        <time>2023-06-17T08:22:03.000Z</time>
      </trkpt>
      <trkpt lat="41.816051" lon="-70.923546">
        <ele>24.67956</ele>
        <time>2023-06-17T08:22:12.000Z</time>
      </trkpt>
      <trkpt lat="41.815597" lon="-70.923269">
        <ele>25.335218</ele>
        <time>2023-06-17T08:22:18.000Z</time>
      </trkpt>
      <trkpt lat="41.815182" lon="-70.923031">
        <ele>25.929215</ele>
        <time>2023-06-17T08:22:23.000Z</time>
      </trkpt>
      <trkpt lat="41.815142" lon="-70.922999">
        <ele>26.010812</ele>
        <time>2023-06-17T08:22:24.000Z</time>
      </trkpt>
      <trkpt lat="41.814879" lon="-70.922795">
        <ele>26.395768</ele>
        <time>2023-06-17T08:22:27.000Z</time>
      </trkpt>
      <trkpt lat="41.814617" lon="-70.922566">
        <ele>26.840978</ele>
        <time>2023-06-17T08:22:30.000Z</time>
      </trkpt>
      <trkpt lat="41.814471" lon="-70.922409">
        <ele>27.1408</ele>
        <time>2023-06-17T08:22:32.000Z</time>
      </trkpt>
      <trkpt lat="41.813204" lon="-70.921474">
        <ele>29.338479</ele>
        <time>2023-06-17T08:22:48.000Z</time>
      </trkpt>
      <trkpt lat="41.812966" lon="-70.921319">
        <ele>29.496958</ele>
        <time>2023-06-17T08:22:51.000Z</time>
      </trkpt>
      <trkpt lat="41.812601" lon="-70.921087">
        <ele>29.561855</ele>
        <time>2023-06-17T08:22:55.000Z</time>
      </trkpt>
      <trkpt lat="41.811995" lon="-70.920907">
        <ele>29.663251</ele>
        <time>2023-06-17T08:23:02.000Z</time>
      </trkpt>
      <trkpt lat="41.811316" lon="-70.920455">
        <ele>29.701093</ele>
        <time>2023-06-17T08:23:10.000Z</time>
      </trkpt>
      <trkpt lat="41.811294" lon="-70.920442">
        <ele>29.689851</ele>
        <time>2023-06-17T08:23:10.000Z</time>
      </trkpt>
      <trkpt lat="41.811243" lon="-70.920413">
        <ele>29.672476</ele>
        <time>2023-06-17T08:23:11.000Z</time>
      </trkpt>
      <trkpt lat="41.810533" lon="-70.919872">
        <ele>29.36864</ele>
        <time>2023-06-17T08:23:20.000Z</time>
      </trkpt>
      <trkpt lat="41.809057" lon="-70.918962">
        <ele>28.417033</ele>
        <time>2023-06-17T08:23:38.000Z</time>
      </trkpt>
      <trkpt lat="41.807763" lon="-70.918386">
        <ele>27.642458</ele>
        <time>2023-06-17T08:23:53.000Z</time>
      </trkpt>
      <trkpt lat="41.807913" lon="-70.917842">
        <ele>27.567568</ele>
        <time>2023-06-17T08:23:58.000Z</time>
      </trkpt>
      <trkpt lat="41.808835" lon="-70.914497">
        <ele>27.810278</ele>
        <time>2023-06-17T08:24:28.000Z</time>
      </trkpt>
      <trkpt lat="41.809228" lon="-70.912998">
        <ele>27.600436</ele>
        <time>2023-06-17T08:24:41.000Z</time>
      </trkpt>
      <trkpt lat="41.809411" lon="-70.912592">
        <ele>27.530985</ele>
        <time>2023-06-17T08:24:45.000Z</time>
      </trkpt>
      <trkpt lat="41.809832" lon="-70.911897">
        <ele>27.560531</ele>
        <time>2023-06-17T08:24:52.000Z</time>
      </trkpt>
      <trkpt lat="41.810602" lon="-70.910326">
        <ele>27.949454</ele>
        <time>2023-06-17T08:25:08.000Z</time>
      </trkpt>
      <trkpt lat="41.81108" lon="-70.90914">
        <ele>27.414405</ele>
        <time>2023-06-17T08:25:19.000Z</time>
      </trkpt>
      <trkpt lat="41.812809" lon="-70.902675">
        <ele>20.501886</ele>
        <time>2023-06-17T08:26:16.000Z</time>
      </trkpt>
      <trkpt lat="41.813183" lon="-70.902167">
        <ele>19.699912</ele>
        <time>2023-06-17T08:26:22.000Z</time>
      </trkpt>
      <trkpt lat="41.81443" lon="-70.901339">
        <ele>17.898525</ele>
        <time>2023-06-17T08:26:37.000Z</time>
      </trkpt>
      <trkpt lat="41.814793" lon="-70.900924">
        <ele>17.363743</ele>
        <time>2023-06-17T08:26:42.000Z</time>
      </trkpt>
      <trkpt lat="41.814961" lon="-70.900657">
        <ele>17.072781</ele>
        <time>2023-06-17T08:26:45.000Z</time>
      </trkpt>
      <trkpt lat="41.81532" lon="-70.899889">
        <ele>16.74687</ele>
        <time>2023-06-17T08:26:53.000Z</time>
      </trkpt>
      <trkpt lat="41.815399" lon="-70.8996">
        <ele>16.737391</ele>
        <time>2023-06-17T08:26:56.000Z</time>
      </trkpt>
      <trkpt lat="41.815421" lon="-70.899379">
        <ele>16.730546</ele>
        <time>2023-06-17T08:26:58.000Z</time>
      </trkpt>
      <trkpt lat="41.815365" lon="-70.899199">
        <ele>16.725062</ele>
        <time>2023-06-17T08:27:00.000Z</time>
      </trkpt>
      <trkpt lat="41.814867" lon="-70.898643">
        <ele>16.69928</ele>
        <time>2023-06-17T08:27:07.000Z</time>
      </trkpt>
      <trkpt lat="41.81477" lon="-70.898401">
        <ele>16.692293</ele>
        <time>2023-06-17T08:27:09.000Z</time>
      </trkpt>
      <trkpt lat="41.814692" lon="-70.89817">
        <ele>16.763368</ele>
        <time>2023-06-17T08:27:11.000Z</time>
      </trkpt>
      <trkpt lat="41.814163" lon="-70.89655">
        <ele>17.30386</ele>
        <time>2023-06-17T08:27:26.000Z</time>
      </trkpt>
      <trkpt lat="41.814053" lon="-70.896034">
        <ele>17.467424</ele>
        <time>2023-06-17T08:27:30.000Z</time>
      </trkpt>
      <trkpt lat="41.813869" lon="-70.894973">
        <ele>17.834245</ele>
        <time>2023-06-17T08:27:39.000Z</time>
      </trkpt>
      <trkpt lat="41.813799" lon="-70.893987">
        <ele>18.163973</ele>
        <time>2023-06-17T08:27:47.000Z</time>
      </trkpt>
      <trkpt lat="41.813835" lon="-70.893157">
        <ele>18.855369</ele>
        <time>2023-06-17T08:27:54.000Z</time>
      </trkpt>
      <trkpt lat="41.813915" lon="-70.892598">
        <ele>19.417328</ele>
        <time>2023-06-17T08:27:59.000Z</time>
      </trkpt>
      <trkpt lat="41.814386" lon="-70.891143">
        <ele>21.135225</ele>
        <time>2023-06-17T08:28:12.000Z</time>
      </trkpt>
      <trkpt lat="41.814426" lon="-70.890527">
        <ele>22.017317</ele>
        <time>2023-06-17T08:28:17.000Z</time>
      </trkpt>
      <trkpt lat="41.814417" lon="-70.889219">
        <ele>23.898684</ele>
        <time>2023-06-17T08:28:28.000Z</time>
      </trkpt>
      <trkpt lat="41.814388" lon="-70.886108">
        <ele>29.236232</ele>
        <time>2023-06-17T08:28:54.000Z</time>
      </trkpt>
      <trkpt lat="41.814323" lon="-70.884285">
        <ele>32.279932</ele>
        <time>2023-06-17T08:29:09.000Z</time>
      </trkpt>
      <trkpt lat="41.814333" lon="-70.882946">
        <ele>32.793242</ele>
        <time>2023-06-17T08:29:20.000Z</time>
      </trkpt>
      <trkpt lat="41.814499" lon="-70.88297">
        <ele>32.880395</ele>
        <time>2023-06-17T08:29:22.000Z</time>
      </trkpt>
      <trkpt lat="41.815891" lon="-70.883117">
        <ele>32.290495</ele>
        <time>2023-06-17T08:29:38.000Z</time>
      </trkpt>
      <trkpt lat="41.816396" lon="-70.88318">
        <ele>31.655427</ele>
        <time>2023-06-17T08:29:44.000Z</time>
      </trkpt>
      <trkpt lat="41.818019" lon="-70.883393">
        <ele>30.086519</ele>
        <time>2023-06-17T08:30:02.000Z</time>
      </trkpt>
      <trkpt lat="41.818419" lon="-70.883429">
        <ele>29.765031</ele>
        <time>2023-06-17T08:30:06.000Z</time>
      </trkpt>
      <trkpt lat="41.821764" lon="-70.883842">
        <ele>30.289395</ele>
        <time>2023-06-17T08:30:43.000Z</time>
      </trkpt>
      <trkpt lat="41.821867" lon="-70.883854">
        <ele>30.307195</ele>
        <time>2023-06-17T08:30:44.000Z</time>
      </trkpt>
      <trkpt lat="41.825492" lon="-70.88422">
        <ele>29.825326</ele>
        <time>2023-06-17T08:31:24.000Z</time>
      </trkpt>
      <trkpt lat="41.827133" lon="-70.884382">
        <ele>29.68957</ele>
        <time>2023-06-17T08:31:42.000Z</time>
      </trkpt>
      <trkpt lat="41.830265" lon="-70.8842">
        <ele>30.039199</ele>
        <time>2023-06-17T08:32:17.000Z</time>
      </trkpt>
      <trkpt lat="41.830827" lon="-70.884058">
        <ele>30.194999</ele>
        <time>2023-06-17T08:32:23.000Z</time>
      </trkpt>
      <trkpt lat="41.831496" lon="-70.883746">
        <ele>30.485807</ele>
        <time>2023-06-17T08:32:31.000Z</time>
      </trkpt>
      <trkpt lat="41.834051" lon="-70.882572">
        <ele>31.92054</ele>
        <time>2023-06-17T08:33:01.000Z</time>
      </trkpt>
      <trkpt lat="41.834408" lon="-70.882188">
        <ele>32.115672</ele>
        <time>2023-06-17T08:33:06.000Z</time>
      </trkpt>
      <trkpt lat="41.834576" lon="-70.881933">
        <ele>32.179369</ele>
        <time>2023-06-17T08:33:09.000Z</time>
      </trkpt>
      <trkpt lat="41.834703" lon="-70.881549">
        <ele>32.117532</ele>
        <time>2023-06-17T08:33:12.000Z</time>
      </trkpt>
      <trkpt lat="41.834798" lon="-70.880884">
        <ele>32.016779</ele>
        <time>2023-06-17T08:33:18.000Z</time>
      </trkpt>
      <trkpt lat="41.834774" lon="-70.880571">
        <ele>31.970918</ele>
        <time>2023-06-17T08:33:21.000Z</time>
      </trkpt>
      <trkpt lat="41.834693" lon="-70.879995">
        <ele>31.884961</ele>
        <time>2023-06-17T08:33:26.000Z</time>
      </trkpt>
      <trkpt lat="41.834602" lon="-70.879219">
        <ele>31.839504</ele>
        <time>2023-06-17T08:33:33.000Z</time>
      </trkpt>
      <trkpt lat="41.834395" lon="-70.877668">
        <ele>31.844139</ele>
        <time>2023-06-17T08:33:46.000Z</time>
      </trkpt>
      <trkpt lat="41.834288" lon="-70.876855">
        <ele>31.591318</ele>
        <time>2023-06-17T08:33:53.000Z</time>
      </trkpt>
      <trkpt lat="41.834143" lon="-70.875627">
        <ele>30.916672</ele>
        <time>2023-06-17T08:34:03.000Z</time>
      </trkpt>
      <trkpt lat="41.834122" lon="-70.875564">
        <ele>30.882024</ele>
        <time>2023-06-17T08:34:04.000Z</time>
      </trkpt>
      <trkpt lat="41.833921" lon="-70.873842">
        <ele>29.517768</ele>
        <time>2023-06-17T08:34:18.000Z</time>
      </trkpt>
      <trkpt lat="41.833932" lon="-70.87303">
        <ele>28.774163</ele>
        <time>2023-06-17T08:34:25.000Z</time>
      </trkpt>
      <trkpt lat="41.834038" lon="-70.872367">
        <ele>28.262107</ele>
        <time>2023-06-17T08:34:31.000Z</time>
      </trkpt>
      <trkpt lat="41.833205" lon="-70.872897">
        <ele>27.87694</ele>
        <time>2023-06-17T08:34:41.000Z</time>
      </trkpt>
      <trkpt lat="41.832935" lon="-70.873002">
        <ele>27.761258</ele>
        <time>2023-06-17T08:34:44.000Z</time>
      </trkpt>
      <trkpt lat="41.83223" lon="-70.87303">
        <ele>27.657934</ele>
        <time>2023-06-17T08:34:52.000Z</time>
      </trkpt>
      <trkpt lat="41.831893" lon="-70.873001">
        <ele>27.801807</ele>
        <time>2023-06-17T08:34:56.000Z</time>
      </trkpt>
      <trkpt lat="41.831174" lon="-70.872716">
        <ele>28.123579</ele>
        <time>2023-06-17T08:35:04.000Z</time>
      </trkpt>
      <trkpt lat="41.830641" lon="-70.872653">
        <ele>28.387408</ele>
        <time>2023-06-17T08:35:10.000Z</time>
      </trkpt>
      <trkpt lat="41.830347" lon="-70.872722">
        <ele>28.731245</ele>
        <time>2023-06-17T08:35:13.000Z</time>
      </trkpt>
      <trkpt lat="41.830321" lon="-70.872732">
        <ele>28.761516</ele>
        <time>2023-06-17T08:35:13.000Z</time>
      </trkpt>
      <trkpt lat="41.829757" lon="-70.873019">
        <ele>29.430623</ele>
        <time>2023-06-17T08:35:20.000Z</time>
      </trkpt>
      <trkpt lat="41.827778" lon="-70.874253">
        <ele>31.795952</ele>
        <time>2023-06-17T08:35:44.000Z</time>
      </trkpt>
      <trkpt lat="41.827365" lon="-70.874517">
        <ele>32.2596</ele>
        <time>2023-06-17T08:35:49.000Z</time>
      </trkpt>
      <trkpt lat="41.826833" lon="-70.874845">
        <ele>32.535478</ele>
        <time>2023-06-17T08:35:56.000Z</time>
      </trkpt>
      <trkpt lat="41.826548" lon="-70.875026">
        <ele>32.683965</ele>
        <time>2023-06-17T08:36:00.000Z</time>
      </trkpt>
      <trkpt lat="41.825669" lon="-70.875572">
        <ele>33.09747</ele>
        <time>2023-06-17T08:36:11.000Z</time>
      </trkpt>
      <trkpt lat="41.82554" lon="-70.875661">
        <ele>33.096609</ele>
        <time>2023-06-17T08:36:13.000Z</time>
      </trkpt>
      <trkpt lat="41.824722" lon="-70.876155">
        <ele>33.09138</ele>
        <time>2023-06-17T08:36:23.000Z</time>
      </trkpt>
      <trkpt lat="41.823936" lon="-70.876693">
        <ele>32.936279</ele>
        <time>2023-06-17T08:36:33.000Z</time>
      </trkpt>
      <trkpt lat="41.822878" lon="-70.877417">
        <ele>32.149037</ele>
        <time>2023-06-17T08:36:46.000Z</time>
      </trkpt>
      <trkpt lat="41.822597" lon="-70.877538">
        <ele>31.950584</ele>
        <time>2023-06-17T08:36:49.000Z</time>
      </trkpt>
      <trkpt lat="41.822358" lon="-70.877591">
        <ele>31.847532</ele>
        <time>2023-06-17T08:36:52.000Z</time>
      </trkpt>
      <trkpt lat="41.822028" lon="-70.877551">
        <ele>31.759169</ele>
        <time>2023-06-17T08:36:56.000Z</time>
      </trkpt>
      <trkpt lat="41.82158" lon="-70.877436">
        <ele>31.635672</ele>
        <time>2023-06-17T08:37:01.000Z</time>
      </trkpt>
      <trkpt lat="41.821001" lon="-70.877292">
        <ele>31.47679</ele>
        <time>2023-06-17T08:37:08.000Z</time>
      </trkpt>
      <trkpt lat="41.82037" lon="-70.877232">
        <ele>31.554466</ele>
        <time>2023-06-17T08:37:15.000Z</time>
      </trkpt>
      <trkpt lat="41.819559" lon="-70.877236">
        <ele>31.891215</ele>
        <time>2023-06-17T08:37:24.000Z</time>
      </trkpt>
      <trkpt lat="41.819025" lon="-70.877238">
        <ele>32.119607</ele>
        <time>2023-06-17T08:37:30.000Z</time>
      </trkpt>
      <trkpt lat="41.817679" lon="-70.877088">
        <ele>33.310119</ele>
        <time>2023-06-17T08:37:45.000Z</time>
      </trkpt>
      <trkpt lat="41.817037" lon="-70.877039">
        <ele>33.827893</ele>
        <time>2023-06-17T08:37:52.000Z</time>
      </trkpt>
      <trkpt lat="41.815901" lon="-70.877046">
        <ele>34.186684</ele>
        <time>2023-06-17T08:38:05.000Z</time>
      </trkpt>
      <trkpt lat="41.815317" lon="-70.877094">
        <ele>34.358459</ele>
        <time>2023-06-17T08:38:12.000Z</time>
      </trkpt>
      <trkpt lat="41.81498" lon="-70.877209">
        <ele>34.273201</ele>
        <time>2023-06-17T08:38:16.000Z</time>
      </trkpt>
      <trkpt lat="41.812851" lon="-70.87867">
        <ele>33.873263</ele>
        <time>2023-06-17T08:38:43.000Z</time>
      </trkpt>
      <trkpt lat="41.812582" lon="-70.878838">
        <ele>33.858241</ele>
        <time>2023-06-17T08:38:46.000Z</time>
      </trkpt>
      <trkpt lat="41.812126" lon="-70.879133">
        <ele>33.832604</ele>
        <time>2023-06-17T08:38:52.000Z</time>
      </trkpt>
      <trkpt lat="41.811287" lon="-70.879706">
        <ele>33.917815</ele>
        <time>2023-06-17T08:39:02.000Z</time>
      </trkpt>
      <trkpt lat="41.810771" lon="-70.880056">
        <ele>33.973748</ele>
        <time>2023-06-17T08:39:08.000Z</time>
      </trkpt>
      <trkpt lat="41.810497" lon="-70.880224">
        <ele>34.0022</ele>
        <time>2023-06-17T08:39:11.000Z</time>
      </trkpt>
      <trkpt lat="41.809198" lon="-70.881059">
        <ele>33.568557</ele>
        <time>2023-06-17T08:39:27.000Z</time>
      </trkpt>
      <trkpt lat="41.80855" lon="-70.880736">
        <ele>33.325962</ele>
        <time>2023-06-17T08:39:35.000Z</time>
      </trkpt>
      <trkpt lat="41.808197" lon="-70.880566">
        <ele>33.173735</ele>
        <time>2023-06-17T08:39:39.000Z</time>
      </trkpt>
      <trkpt lat="41.807243" lon="-70.880088">
        <ele>32.768414</ele>
        <time>2023-06-17T08:39:50.000Z</time>
      </trkpt>
      <trkpt lat="41.806061" lon="-70.879511">
        <ele>31.208233</ele>
        <time>2023-06-17T08:40:04.000Z</time>
      </trkpt>
      <trkpt lat="41.805627" lon="-70.879314">
        <ele>30.619253</ele>
        <time>2023-06-17T08:40:09.000Z</time>
      </trkpt>
      <trkpt lat="41.804763" lon="-70.878885">
        <ele>29.09739</ele>
        <time>2023-06-17T08:40:19.000Z</time>
      </trkpt>
      <trkpt lat="41.804153" lon="-70.878578">
        <ele>27.979426</ele>
        <time>2023-06-17T08:40:26.000Z</time>
      </trkpt>
      <trkpt lat="41.803345" lon="-70.878084">
        <ele>26.569635</ele>
        <time>2023-06-17T08:40:36.000Z</time>
      </trkpt>
      <trkpt lat="41.802553" lon="-70.877664">
        <ele>25.325494</ele>
        <time>2023-06-17T08:40:45.000Z</time>
      </trkpt>
      <trkpt lat="41.801269" lon="-70.876983">
        <ele>24.154201</ele>
        <time>2023-06-17T08:41:00.000Z</time>
      </trkpt>
      <trkpt lat="41.801128" lon="-70.876918">
        <ele>24.068177</ele>
        <time>2023-06-17T08:41:02.000Z</time>
      </trkpt>
      <trkpt lat="41.800782" lon="-70.876715">
        <ele>23.852061</ele>
        <time>2023-06-17T08:41:06.000Z</time>
      </trkpt>
      <trkpt lat="41.799054" lon="-70.875773">
        <ele>24.24542</ele>
        <time>2023-06-17T08:41:27.000Z</time>
      </trkpt>
      <trkpt lat="41.796812" lon="-70.874565">
        <ele>25.677638</ele>
        <time>2023-06-17T08:41:54.000Z</time>
      </trkpt>
      <trkpt lat="41.796068" lon="-70.874117">
        <ele>25.881824</ele>
        <time>2023-06-17T08:42:03.000Z</time>
      </trkpt>
      <trkpt lat="41.795822" lon="-70.873875">
        <ele>25.959661</ele>
        <time>2023-06-17T08:42:06.000Z</time>
      </trkpt>
      <trkpt lat="41.79386" lon="-70.871487">
        <ele>26.682275</ele>
        <time>2023-06-17T08:42:35.000Z</time>
      </trkpt>
      <trkpt lat="41.793207" lon="-70.870805">
        <ele>27.331249</ele>
        <time>2023-06-17T08:42:44.000Z</time>
      </trkpt>
      <trkpt lat="41.793065" lon="-70.870663">
        <ele>27.460244</ele>
        <time>2023-06-17T08:42:46.000Z</time>
      </trkpt>
      <trkpt lat="41.792276" lon="-70.869804">
        <ele>28.45048</ele>
        <time>2023-06-17T08:42:57.000Z</time>
      </trkpt>
      <trkpt lat="41.792006" lon="-70.869499">
        <ele>28.833301</ele>
        <time>2023-06-17T08:43:01.000Z</time>
      </trkpt>
      <trkpt lat="41.791959" lon="-70.869454">
        <ele>28.889976</ele>
        <time>2023-06-17T08:43:02.000Z</time>
      </trkpt>
      <trkpt lat="41.791485" lon="-70.868767">
        <ele>29.580728</ele>
        <time>2023-06-17T08:43:10.000Z</time>
      </trkpt>
      <trkpt lat="41.791115" lon="-70.868853">
        <ele>29.682007</ele>
        <time>2023-06-17T08:43:14.000Z</time>
      </trkpt>
      <trkpt lat="41.790528" lon="-70.870029">
        <ele>29.968895</ele>
        <time>2023-06-17T08:43:26.000Z</time>
      </trkpt>
      <trkpt lat="41.790336" lon="-70.870337">
        <ele>30.049991</ele>
        <time>2023-06-17T08:43:29.000Z</time>
      </trkpt>
      <trkpt lat="41.789925" lon="-70.870768">
        <ele>29.87725</ele>
        <time>2023-06-17T08:43:35.000Z</time>
      </trkpt>
      <trkpt lat="41.788975" lon="-70.871547">
        <ele>29.470108</ele>
        <time>2023-06-17T08:43:47.000Z</time>
      </trkpt>
      <trkpt lat="41.788645" lon="-70.87197">
        <ele>29.224793</ele>
        <time>2023-06-17T08:43:52.000Z</time>
      </trkpt>
      <trkpt lat="41.788463" lon="-70.87239">
        <ele>28.980221</ele>
        <time>2023-06-17T08:43:56.000Z</time>
      </trkpt>
      <trkpt lat="41.788146" lon="-70.873622">
        <ele>28.325912</ele>
        <time>2023-06-17T08:44:07.000Z</time>
      </trkpt>
      <trkpt lat="41.787919" lon="-70.874087">
        <ele>27.976015</ele>
        <time>2023-06-17T08:44:12.000Z</time>
      </trkpt>
      <trkpt lat="41.787535" lon="-70.874721">
        <ele>27.370037</ele>
        <time>2023-06-17T08:44:19.000Z</time>
      </trkpt>
      <trkpt lat="41.787003" lon="-70.875536">
        <ele>26.56758</ele>
        <time>2023-06-17T08:44:28.000Z</time>
      </trkpt>
      <trkpt lat="41.785593" lon="-70.877407">
        <ele>24.408147</ele>
        <time>2023-06-17T08:44:50.000Z</time>
      </trkpt>
      <trkpt lat="41.785429" lon="-70.877655">
        <ele>24.311588</ele>
        <time>2023-06-17T08:44:53.000Z</time>
      </trkpt>
      <trkpt lat="41.785003" lon="-70.878288">
        <ele>24.068788</ele>
        <time>2023-06-17T08:45:00.000Z</time>
      </trkpt>
      <trkpt lat="41.784683" lon="-70.878959">
        <ele>23.840333</ele>
        <time>2023-06-17T08:45:07.000Z</time>
      </trkpt>
      <trkpt lat="41.783604" lon="-70.882704">
        <ele>23.904996</ele>
        <time>2023-06-17T08:45:40.000Z</time>
      </trkpt>
      <trkpt lat="41.783186" lon="-70.884269">
        <ele>23.3109</ele>
        <time>2023-06-17T08:45:54.000Z</time>
      </trkpt>
      <trkpt lat="41.783036" lon="-70.884753">
        <ele>22.941831</ele>
        <time>2023-06-17T08:45:58.000Z</time>
      </trkpt>
      <trkpt lat="41.782972" lon="-70.88507">
        <ele>22.6942</ele>
        <time>2023-06-17T08:46:01.000Z</time>
      </trkpt>
      <trkpt lat="41.782858" lon="-70.88593">
        <ele>22.056122</ele>
        <time>2023-06-17T08:46:08.000Z</time>
      </trkpt>
      <trkpt lat="41.782671" lon="-70.889958">
        <ele>22.598419</ele>
        <time>2023-06-17T08:46:41.000Z</time>
      </trkpt>
      <trkpt lat="41.78264" lon="-70.89021">
        <ele>22.785897</ele>
        <time>2023-06-17T08:46:43.000Z</time>
      </trkpt>
      <trkpt lat="41.78255" lon="-70.89104">
        <ele>23.493089</ele>
        <time>2023-06-17T08:46:50.000Z</time>
      </trkpt>
      <trkpt lat="41.782507" lon="-70.891331">
        <ele>24.030328</ele>
        <time>2023-06-17T08:46:52.000Z</time>
      </trkpt>
      <trkpt lat="41.782223" lon="-70.894109">
        <ele>28.176727</ele>
        <time>2023-06-17T08:47:15.000Z</time>
      </trkpt>
      <trkpt lat="41.782116" lon="-70.89503">
        <ele>28.471689</ele>
        <time>2023-06-17T08:47:23.000Z</time>
      </trkpt>
      <trkpt lat="41.782089" lon="-70.895264">
        <ele>28.547126</ele>
        <time>2023-06-17T08:47:25.000Z</time>
      </trkpt>
      <trkpt lat="41.782051" lon="-70.895635">
        <ele>28.668167</ele>
        <time>2023-06-17T08:47:28.000Z</time>
      </trkpt>
      <trkpt lat="41.782037" lon="-70.895895">
        <ele>28.598099</ele>
        <time>2023-06-17T08:47:30.000Z</time>
      </trkpt>
      <trkpt lat="41.781988" lon="-70.896375">
        <ele>28.244555</ele>
        <time>2023-06-17T08:47:34.000Z</time>
      </trkpt>
      <trkpt lat="41.781919" lon="-70.89692">
        <ele>27.837363</ele>
        <time>2023-06-17T08:47:39.000Z</time>
      </trkpt>
      <trkpt lat="41.781705" lon="-70.898961">
        <ele>26.935113</ele>
        <time>2023-06-17T08:47:56.000Z</time>
      </trkpt>
      <trkpt lat="41.781555" lon="-70.900515">
        <ele>26.925267</ele>
        <time>2023-06-17T08:48:09.000Z</time>
      </trkpt>
      <trkpt lat="41.781412" lon="-70.901799">
        <ele>26.867188</ele>
        <time>2023-06-17T08:48:20.000Z</time>
      </trkpt>
      <trkpt lat="41.781167" lon="-70.904233">
        <ele>26.607975</ele>
        <time>2023-06-17T08:48:40.000Z</time>
      </trkpt>
      <trkpt lat="41.781089" lon="-70.904994">
        <ele>26.486913</ele>
        <time>2023-06-17T08:48:46.000Z</time>
      </trkpt>
      <trkpt lat="41.780989" lon="-70.906048">
        <ele>26.302848</ele>
        <time>2023-06-17T08:48:55.000Z</time>
      </trkpt>
      <trkpt lat="41.780982" lon="-70.906295">
        <ele>26.259952</ele>
        <time>2023-06-17T08:48:57.000Z</time>
      </trkpt>
      <trkpt lat="41.781007" lon="-70.906917">
        <ele>26.147564</ele>
        <time>2023-06-17T08:49:02.000Z</time>
      </trkpt>
      <trkpt lat="41.781047" lon="-70.907533">
        <ele>26.034385</ele>
        <time>2023-06-17T08:49:07.000Z</time>
      </trkpt>
      <trkpt lat="41.781075" lon="-70.908774">
        <ele>26.083814</ele>
        <time>2023-06-17T08:49:17.000Z</time>
      </trkpt>
      <trkpt lat="41.780799" lon="-70.911548">
        <ele>26.617876</ele>
        <time>2023-06-17T08:49:40.000Z</time>
      </trkpt>
      <trkpt lat="41.78067" lon="-70.912628">
        <ele>26.92191</ele>
        <time>2023-06-17T08:49:49.000Z</time>
      </trkpt>
      <trkpt lat="41.780461" lon="-70.913783">
        <ele>27.066009</ele>
        <time>2023-06-17T08:49:59.000Z</time>
      </trkpt>
      <trkpt lat="41.780002" lon="-70.915804">
        <ele>27.176963</ele>
        <time>2023-06-17T08:50:17.000Z</time>
      </trkpt>
      <trkpt lat="41.779665" lon="-70.917519">
        <ele>27.154753</ele>
        <time>2023-06-17T08:50:32.000Z</time>
      </trkpt>
      <trkpt lat="41.779583" lon="-70.918327">
        <ele>27.171168</ele>
        <time>2023-06-17T08:50:39.000Z</time>
      </trkpt>
      <trkpt lat="41.77958" lon="-70.918445">
        <ele>27.173601</ele>
        <time>2023-06-17T08:50:40.000Z</time>
      </trkpt>
      <trkpt lat="41.779506" lon="-70.919241">
        <ele>27.190207</ele>
        <time>2023-06-17T08:50:47.000Z</time>
      </trkpt>
      <trkpt lat="41.779382" lon="-70.920447">
        <ele>27.075765</ele>
        <time>2023-06-17T08:50:57.000Z</time>
      </trkpt>
      <trkpt lat="41.779194" lon="-70.922081">
        <ele>26.867953</ele>
        <time>2023-06-17T08:51:11.000Z</time>
      </trkpt>
      <trkpt lat="41.778858" lon="-70.925705">
        <ele>26.678358</ele>
        <time>2023-06-17T08:51:41.000Z</time>
      </trkpt>
      <trkpt lat="41.778714" lon="-70.927349">
        <ele>26.448735</ele>
        <time>2023-06-17T08:51:55.000Z</time>
      </trkpt>
      <trkpt lat="41.77869" lon="-70.927642">
        <ele>26.346599</ele>
        <time>2023-06-17T08:51:57.000Z</time>
      </trkpt>
      <trkpt lat="41.778618" lon="-70.928295">
        <ele>26.1141</ele>
        <time>2023-06-17T08:52:02.000Z</time>
      </trkpt>
      <trkpt lat="41.778583" lon="-70.92859">
        <ele>26.013684</ele>
        <time>2023-06-17T08:52:04.000Z</time>
      </trkpt>
      <trkpt lat="41.778539" lon="-70.929066">
        <ele>25.843754</ele>
        <time>2023-06-17T08:52:08.000Z</time>
      </trkpt>
      <trkpt lat="41.77846" lon="-70.929859">
        <ele>25.310192</ele>
        <time>2023-06-17T08:52:15.000Z</time>
      </trkpt>
      <trkpt lat="41.778428" lon="-70.93023">
        <ele>25.062757</ele>
        <time>2023-06-17T08:52:18.000Z</time>
      </trkpt>
      <trkpt lat="41.778352" lon="-70.930976">
        <ele>24.555755</ele>
        <time>2023-06-17T08:52:24.000Z</time>
      </trkpt>
      <trkpt lat="41.778278" lon="-70.931632">
        <ele>24.109386</ele>
        <time>2023-06-17T08:52:30.000Z</time>
      </trkpt>
      <trkpt lat="41.778186" lon="-70.932414">
        <ele>23.580756</ele>
        <time>2023-06-17T08:52:37.000Z</time>
      </trkpt>
      <trkpt lat="41.77811" lon="-70.933059">
        <ele>23.151929</ele>
        <time>2023-06-17T08:52:42.000Z</time>
      </trkpt>
      <trkpt lat="41.778062" lon="-70.933392">
        <ele>22.928443</ele>
        <time>2023-06-17T08:52:45.000Z</time>
      </trkpt>
      <trkpt lat="41.778021" lon="-70.933815">
        <ele>22.652325</ele>
        <time>2023-06-17T08:52:49.000Z</time>
      </trkpt>
      <trkpt lat="41.777924" lon="-70.93446">
        <ele>22.522049</ele>
        <time>2023-06-17T08:52:54.000Z</time>
      </trkpt>
      <trkpt lat="41.777902" lon="-70.934537">
        <ele>22.51014</ele>
        <time>2023-06-17T08:52:55.000Z</time>
      </trkpt>
      <trkpt lat="41.777671" lon="-70.935078">
        <ele>22.41433</ele>
        <time>2023-06-17T08:53:00.000Z</time>
      </trkpt>
      <trkpt lat="41.777391" lon="-70.935398">
        <ele>22.336228</ele>
        <time>2023-06-17T08:53:04.000Z</time>
      </trkpt>
      <trkpt lat="41.776987" lon="-70.93559">
        <ele>22.250413</ele>
        <time>2023-06-17T08:53:09.000Z</time>
      </trkpt>
      <trkpt lat="41.77673" lon="-70.935676">
        <ele>22.254493</ele>
        <time>2023-06-17T08:53:12.000Z</time>
      </trkpt>
      <trkpt lat="41.776043" lon="-70.935846">
        <ele>22.287054</ele>
        <time>2023-06-17T08:53:20.000Z</time>
      </trkpt>
      <trkpt lat="41.77594" lon="-70.935896">
        <ele>22.292006</ele>
        <time>2023-06-17T08:53:21.000Z</time>
      </trkpt>
      <trkpt lat="41.775662" lon="-70.935992">
        <ele>22.305983</ele>
        <time>2023-06-17T08:53:24.000Z</time>
      </trkpt>
      <trkpt lat="41.774861" lon="-70.936484">
        <ele>22.433343</ele>
        <time>2023-06-17T08:53:34.000Z</time>
      </trkpt>
      <trkpt lat="41.774451" lon="-70.936816">
        <ele>22.555488</ele>
        <time>2023-06-17T08:53:39.000Z</time>
      </trkpt>
      <trkpt lat="41.773521" lon="-70.93778">
        <ele>22.984091</ele>
        <time>2023-06-17T08:53:52.000Z</time>
      </trkpt>
      <trkpt lat="41.773041" lon="-70.938356">
        <ele>23.447499</ele>
        <time>2023-06-17T08:53:59.000Z</time>
      </trkpt>
      <trkpt lat="41.772059" lon="-70.939802">
        <ele>24.449824</ele>
        <time>2023-06-17T08:54:15.000Z</time>
      </trkpt>
      <trkpt lat="41.771488" lon="-70.940261">
        <ele>24.890147</ele>
        <time>2023-06-17T08:54:22.000Z</time>
      </trkpt>
      <trkpt lat="41.771274" lon="-70.940424">
        <ele>25.054387</ele>
        <time>2023-06-17T08:54:25.000Z</time>
      </trkpt>
      <trkpt lat="41.771002" lon="-70.940636">
        <ele>25.264263</ele>
        <time>2023-06-17T08:54:28.000Z</time>
      </trkpt>
      <trkpt lat="41.770754" lon="-70.940807">
        <ele>25.295542</ele>
        <time>2023-06-17T08:54:31.000Z</time>
      </trkpt>
      <trkpt lat="41.770243" lon="-70.941181">
        <ele>25.358642</ele>
        <time>2023-06-17T08:54:37.000Z</time>
      </trkpt>
      <trkpt lat="41.769941" lon="-70.941388">
        <ele>25.394286</ele>
        <time>2023-06-17T08:54:41.000Z</time>
      </trkpt>
      <trkpt lat="41.769551" lon="-70.941652">
        <ele>25.441498</ele>
        <time>2023-06-17T08:54:46.000Z</time>
      </trkpt>
      <trkpt lat="41.769199" lon="-70.941853">
        <ele>25.46716</ele>
        <time>2023-06-17T08:54:50.000Z</time>
      </trkpt>
      <trkpt lat="41.768389" lon="-70.942075">
        <ele>25.494735</ele>
        <time>2023-06-17T08:54:59.000Z</time>
      </trkpt>
      <trkpt lat="41.768242" lon="-70.94211">
        <ele>25.500286</ele>
        <time>2023-06-17T08:55:01.000Z</time>
      </trkpt>
      <trkpt lat="41.767224" lon="-70.942331">
        <ele>25.462432</ele>
        <time>2023-06-17T08:55:12.000Z</time>
      </trkpt>
      <trkpt lat="41.767219" lon="-70.94298">
        <ele>25.40042</ele>
        <time>2023-06-17T08:55:17.000Z</time>
      </trkpt>
      <trkpt lat="41.767321" lon="-70.943773">
        <ele>25.321127</ele>
        <time>2023-06-17T08:55:24.000Z</time>
      </trkpt>
      <trkpt lat="41.767518" lon="-70.944248">
        <ele>25.355327</ele>
        <time>2023-06-17T08:55:29.000Z</time>
      </trkpt>
      <trkpt lat="41.767562" lon="-70.944359">
        <ele>25.408968</ele>
        <time>2023-06-17T08:55:30.000Z</time>
      </trkpt>
      <trkpt lat="41.767583" lon="-70.94443">
        <ele>25.448445</ele>
        <time>2023-06-17T08:55:31.000Z</time>
      </trkpt>
      <trkpt lat="41.767687" lon="-70.94465">
        <ele>25.550898</ele>
        <time>2023-06-17T08:55:33.000Z</time>
      </trkpt>
      <trkpt lat="41.767697" lon="-70.944689">
        <ele>25.571108</ele>
        <time>2023-06-17T08:55:33.000Z</time>
      </trkpt>
      <trkpt lat="41.76772" lon="-70.944717">
        <ele>25.593028</ele>
        <time>2023-06-17T08:55:33.000Z</time>
      </trkpt>
      <trkpt lat="41.767827" lon="-70.944928">
        <ele>25.696422</ele>
        <time>2023-06-17T08:55:35.000Z</time>
      </trkpt>
      <trkpt lat="41.767966" lon="-70.945212">
        <ele>25.846412</ele>
        <time>2023-06-17T08:55:38.000Z</time>
      </trkpt>
      <trkpt lat="41.76818" lon="-70.94614">
        <ele>26.25764</ele>
        <time>2023-06-17T08:55:46.000Z</time>
      </trkpt>
      <trkpt lat="41.768384" lon="-70.947546">
        <ele>26.992791</ele>
        <time>2023-06-17T08:55:58.000Z</time>
      </trkpt>
      <trkpt lat="41.768538" lon="-70.94858">
        <ele>27.553357</ele>
        <time>2023-06-17T08:56:07.000Z</time>
      </trkpt>
      <trkpt lat="41.768625" lon="-70.948851">
        <ele>27.64171</ele>
        <time>2023-06-17T08:56:09.000Z</time>
      </trkpt>
      <trkpt lat="41.768754" lon="-70.949268">
        <ele>27.757435</ele>
        <time>2023-06-17T08:56:13.000Z</time>
      </trkpt>
      <trkpt lat="41.769212" lon="-70.95058">
        <ele>28.136629</ele>
        <time>2023-06-17T08:56:25.000Z</time>
      </trkpt>
      <trkpt lat="41.770074" lon="-70.952039">
        <ele>28.944262</ele>
        <time>2023-06-17T08:56:40.000Z</time>
      </trkpt>
      <trkpt lat="41.770345" lon="-70.952741">
        <ele>29.321247</ele>
        <time>2023-06-17T08:56:47.000Z</time>
      </trkpt>
      <trkpt lat="41.770629" lon="-70.954324">
        <ele>29.458842</ele>
        <time>2023-06-17T08:57:01.000Z</time>
      </trkpt>
      <trkpt lat="41.770743" lon="-70.95478">
        <ele>29.497654</ele>
        <time>2023-06-17T08:57:05.000Z</time>
      </trkpt>
      <trkpt lat="41.770831" lon="-70.955011">
        <ele>29.517421</ele>
        <time>2023-06-17T08:57:07.000Z</time>
      </trkpt>
      <trkpt lat="41.770857" lon="-70.955401">
        <ele>29.385006</ele>
        <time>2023-06-17T08:57:10.000Z</time>
      </trkpt>
      <trkpt lat="41.770861" lon="-70.955457">
        <ele>29.36406</ele>
        <time>2023-06-17T08:57:10.000Z</time>
      </trkpt>
      <trkpt lat="41.771133" lon="-70.955822">
        <ele>29.146473</ele>
        <time>2023-06-17T08:57:14.000Z</time>
      </trkpt>
      <trkpt lat="41.771474" lon="-70.956157">
        <ele>28.899684</ele>
        <time>2023-06-17T08:57:19.000Z</time>
      </trkpt>
      <trkpt lat="41.772051" lon="-70.956645">
        <ele>28.507047</ele>
        <time>2023-06-17T08:57:27.000Z</time>
      </trkpt>
      <trkpt lat="41.773485" lon="-70.957752">
        <ele>26.987287</ele>
        <time>2023-06-17T08:57:45.000Z</time>
      </trkpt>
      <trkpt lat="41.77356" lon="-70.957811">
        <ele>26.917306</ele>
        <time>2023-06-17T08:57:46.000Z</time>
      </trkpt>
      <trkpt lat="41.773842" lon="-70.958009">
        <ele>26.630788</ele>
        <time>2023-06-17T08:57:50.000Z</time>
      </trkpt>
      <trkpt lat="41.774127" lon="-70.958142">
        <ele>26.381381</ele>
        <time>2023-06-17T08:57:53.000Z</time>
      </trkpt>
      <trkpt lat="41.7744" lon="-70.95823">
        <ele>26.150478</ele>
        <time>2023-06-17T08:57:56.000Z</time>
      </trkpt>
      <trkpt lat="41.774482" lon="-70.958252">
        <ele>26.072987</ele>
        <time>2023-06-17T08:57:57.000Z</time>
      </trkpt>
      <trkpt lat="41.774605" lon="-70.958284">
        <ele>25.970185</ele>
        <time>2023-06-17T08:57:58.000Z</time>
      </trkpt>
      <trkpt lat="41.774743" lon="-70.958289">
        <ele>25.854481</ele>
        <time>2023-06-17T08:58:00.000Z</time>
      </trkpt>
      <trkpt lat="41.774739" lon="-70.958356">
        <ele>25.819755</ele>
        <time>2023-06-17T08:58:01.000Z</time>
      </trkpt>
      <trkpt lat="41.774686" lon="-70.958735">
        <ele>25.578071</ele>
        <time>2023-06-17T08:58:04.000Z</time>
      </trkpt>
      <trkpt lat="41.774608" lon="-70.959415">
        <ele>25.37447</ele>
        <time>2023-06-17T08:58:10.000Z</time>
      </trkpt>
      <trkpt lat="41.77434" lon="-70.9605">
        <ele>25.676831</ele>
        <time>2023-06-17T08:58:19.000Z</time>
      </trkpt>
      <trkpt lat="41.773779" lon="-70.961346">
        <ele>25.965137</ele>
        <time>2023-06-17T08:58:28.000Z</time>
      </trkpt>
      <trkpt lat="41.773618" lon="-70.961773">
        <ele>26.073698</ele>
        <time>2023-06-17T08:58:32.000Z</time>
      </trkpt>
      <trkpt lat="41.773542" lon="-70.962396">
        <ele>26.214146</ele>
        <time>2023-06-17T08:58:37.000Z</time>
      </trkpt>
      <trkpt lat="41.773607" lon="-70.962997">
        <ele>26.351593</ele>
        <time>2023-06-17T08:58:42.000Z</time>
      </trkpt>
      <trkpt lat="41.773761" lon="-70.963383">
        <ele>26.449338</ele>
        <time>2023-06-17T08:58:46.000Z</time>
      </trkpt>
      <trkpt lat="41.774109" lon="-70.963807">
        <ele>26.451888</ele>
        <time>2023-06-17T08:58:51.000Z</time>
      </trkpt>
      <trkpt lat="41.774441" lon="-70.964243">
        <ele>26.419741</ele>
        <time>2023-06-17T08:58:56.000Z</time>
      </trkpt>
      <trkpt lat="41.774654" lon="-70.964688">
        <ele>26.391555</ele>
        <time>2023-06-17T08:59:00.000Z</time>
      </trkpt>
      <trkpt lat="41.774841" lon="-70.965349">
        <ele>26.353832</ele>
        <time>2023-06-17T08:59:06.000Z</time>
      </trkpt>
      <trkpt lat="41.774958" lon="-70.965961">
        <ele>26.644112</ele>
        <time>2023-06-17T08:59:11.000Z</time>
      </trkpt>
      <trkpt lat="41.775112" lon="-70.967132">
        <ele>27.267931</ele>
        <time>2023-06-17T08:59:21.000Z</time>
      </trkpt>
      <trkpt lat="41.77559" lon="-70.968166">
        <ele>27.9592</ele>
        <time>2023-06-17T08:59:31.000Z</time>
      </trkpt>
      <trkpt lat="41.775886" lon="-70.968472">
        <ele>28.271177</ele>
        <time>2023-06-17T08:59:35.000Z</time>
      </trkpt>
      <trkpt lat="41.776178" lon="-70.968674">
        <ele>28.539057</ele>
        <time>2023-06-17T08:59:39.000Z</time>
      </trkpt>
      <trkpt lat="41.778187" lon="-70.968979">
        <ele>30.246031</ele>
        <time>2023-06-17T09:00:01.000Z</time>
      </trkpt>
      <trkpt lat="41.77852" lon="-70.969119">
        <ele>30.553581</ele>
        <time>2023-06-17T09:00:05.000Z</time>
      </trkpt>
      <trkpt lat="41.778826" lon="-70.969318">
        <ele>30.697039</ele>
        <time>2023-06-17T09:00:09.000Z</time>
      </trkpt>
      <trkpt lat="41.77964" lon="-70.969997">
        <ele>30.937012</ele>
        <time>2023-06-17T09:00:20.000Z</time>
      </trkpt>
      <trkpt lat="41.780821" lon="-70.970628">
        <ele>31.089006</ele>
        <time>2023-06-17T09:00:34.000Z</time>
      </trkpt>
      <trkpt lat="41.781185" lon="-70.970765">
        <ele>31.088817</ele>
        <time>2023-06-17T09:00:38.000Z</time>
      </trkpt>
      <trkpt lat="41.781544" lon="-70.970778">
        <ele>31.088653</ele>
        <time>2023-06-17T09:00:42.000Z</time>
      </trkpt>
      <trkpt lat="41.7824" lon="-70.970527">
        <ele>31.899205</ele>
        <time>2023-06-17T09:00:52.000Z</time>
      </trkpt>
      <trkpt lat="41.783208" lon="-70.970228">
        <ele>33.309489</ele>
        <time>2023-06-17T09:01:01.000Z</time>
      </trkpt>
      <trkpt lat="41.783586" lon="-70.970187">
        <ele>33.947252</ele>
        <time>2023-06-17T09:01:05.000Z</time>
      </trkpt>
      <trkpt lat="41.784127" lon="-70.970279">
        <ele>34.702753</ele>
        <time>2023-06-17T09:01:11.000Z</time>
      </trkpt>
      <trkpt lat="41.784194" lon="-70.970298">
        <ele>34.778563</ele>
        <time>2023-06-17T09:01:12.000Z</time>
      </trkpt>
      <trkpt lat="41.784232" lon="-70.970314">
        <ele>34.82731</ele>
        <time>2023-06-17T09:01:12.000Z</time>
      </trkpt>
      <trkpt lat="41.784649" lon="-70.970405">
        <ele>35.368132</ele>
        <time>2023-06-17T09:01:17.000Z</time>
      </trkpt>
      <trkpt lat="41.785245" lon="-70.970563">
        <ele>36.154941</ele>
        <time>2023-06-17T09:01:24.000Z</time>
      </trkpt>
      <trkpt lat="41.785472" lon="-70.970614">
        <ele>36.414239</ele>
        <time>2023-06-17T09:01:27.000Z</time>
      </trkpt>
      <trkpt lat="41.785681" lon="-70.97066">
        <ele>36.15798</ele>
        <time>2023-06-17T09:01:29.000Z</time>
      </trkpt>
      <trkpt lat="41.786149" lon="-70.970766">
        <ele>35.623738</ele>
        <time>2023-06-17T09:01:34.000Z</time>
      </trkpt>
      <trkpt lat="41.786451" lon="-70.97093">
        <ele>35.23867</ele>
        <time>2023-06-17T09:01:38.000Z</time>
      </trkpt>
      <trkpt lat="41.786574" lon="-70.971015">
        <ele>35.087456</ele>
        <time>2023-06-17T09:01:40.000Z</time>
      </trkpt>
      <trkpt lat="41.786858" lon="-70.97127">
        <ele>34.688064</ele>
        <time>2023-06-17T09:01:44.000Z</time>
      </trkpt>
      <trkpt lat="41.787155" lon="-70.971616">
        <ele>34.251357</ele>
        <time>2023-06-17T09:01:48.000Z</time>
      </trkpt>
      <trkpt lat="41.787944" lon="-70.972961">
        <ele>33.072185</ele>
        <time>2023-06-17T09:02:02.000Z</time>
      </trkpt>
      <trkpt lat="41.788526" lon="-70.973927">
        <ele>33.047143</ele>
        <time>2023-06-17T09:02:12.000Z</time>
      </trkpt>
      <trkpt lat="41.789504" lon="-70.975286">
        <ele>34.112481</ele>
        <time>2023-06-17T09:02:28.000Z</time>
      </trkpt>
      <trkpt lat="41.790817" lon="-70.977237">
        <ele>35.708783</ele>
        <time>2023-06-17T09:02:50.000Z</time>
      </trkpt>
      <trkpt lat="41.791414" lon="-70.978176">
        <ele>36.254214</ele>
        <time>2023-06-17T09:03:00.000Z</time>
      </trkpt>
      <trkpt lat="41.791509" lon="-70.978312">
        <ele>36.335846</ele>
        <time>2023-06-17T09:03:02.000Z</time>
      </trkpt>
      <trkpt lat="41.792054" lon="-70.979157">
        <ele>36.720779</ele>
        <time>2023-06-17T09:03:11.000Z</time>
      </trkpt>
      <trkpt lat="41.792664" lon="-70.980103">
        <ele>36.997932</ele>
        <time>2023-06-17T09:03:21.000Z</time>
      </trkpt>
      <trkpt lat="41.79295" lon="-70.980667">
        <ele>37.143113</ele>
        <time>2023-06-17T09:03:27.000Z</time>
      </trkpt>
      <trkpt lat="41.79299" lon="-70.980771">
        <ele>37.120327</ele>
        <time>2023-06-17T09:03:28.000Z</time>
      </trkpt>
      <trkpt lat="41.793187" lon="-70.981318">
        <ele>36.988649</ele>
        <time>2023-06-17T09:03:33.000Z</time>
      </trkpt>
      <trkpt lat="41.793285" lon="-70.981631">
        <ele>36.916804</ele>
        <time>2023-06-17T09:03:36.000Z</time>
      </trkpt>
      <trkpt lat="41.793914" lon="-70.984054">
        <ele>36.034596</ele>
        <time>2023-06-17T09:03:57.000Z</time>
      </trkpt>
      <trkpt lat="41.793972" lon="-70.984335">
        <ele>35.89142</ele>
        <time>2023-06-17T09:03:59.000Z</time>
      </trkpt>
      <trkpt lat="41.794018" lon="-70.984486">
        <ele>35.811975</ele>
        <time>2023-06-17T09:04:00.000Z</time>
      </trkpt>
      <trkpt lat="41.794172" lon="-70.985161">
        <ele>35.471943</ele>
        <time>2023-06-17T09:04:06.000Z</time>
      </trkpt>
      <trkpt lat="41.794215" lon="-70.985297">
        <ele>35.333149</ele>
        <time>2023-06-17T09:04:07.000Z</time>
      </trkpt>
      <trkpt lat="41.794248" lon="-70.985418">
        <ele>35.193359</ele>
        <time>2023-06-17T09:04:08.000Z</time>
      </trkpt>
      <trkpt lat="41.79442" lon="-70.986029">
        <ele>34.528288</ele>
        <time>2023-06-17T09:04:13.000Z</time>
      </trkpt>
      <trkpt lat="41.79453" lon="-70.986507">
        <ele>34.03357</ele>
        <time>2023-06-17T09:04:17.000Z</time>
      </trkpt>
      <trkpt lat="41.794673" lon="-70.987136">
        <ele>33.355747</ele>
        <time>2023-06-17T09:04:22.000Z</time>
      </trkpt>
      <trkpt lat="41.794706" lon="-70.987523">
        <ele>32.956478</ele>
        <time>2023-06-17T09:04:25.000Z</time>
      </trkpt>
      <trkpt lat="41.794717" lon="-70.988876">
        <ele>31.134753</ele>
        <time>2023-06-17T09:04:36.000Z</time>
      </trkpt>
      <trkpt lat="41.794727" lon="-70.989271">
        <ele>30.603875</ele>
        <time>2023-06-17T09:04:39.000Z</time>
      </trkpt>
      <trkpt lat="41.794742" lon="-70.989816">
        <ele>29.878587</ele>
        <time>2023-06-17T09:04:44.000Z</time>
      </trkpt>
      <trkpt lat="41.79485" lon="-70.990328">
        <ele>29.335984</ele>
        <time>2023-06-17T09:04:48.000Z</time>
      </trkpt>
      <trkpt lat="41.795233" lon="-70.991267">
        <ele>28.313074</ele>
        <time>2023-06-17T09:04:57.000Z</time>
      </trkpt>
      <trkpt lat="41.795784" lon="-70.992413">
        <ele>27.431658</ele>
        <time>2023-06-17T09:05:08.000Z</time>
      </trkpt>
      <trkpt lat="41.796361" lon="-70.993425">
        <ele>27.327292</ele>
        <time>2023-06-17T09:05:19.000Z</time>
      </trkpt>
      <trkpt lat="41.797302" lon="-70.994652">
        <ele>28.398266</ele>
        <time>2023-06-17T09:05:34.000Z</time>
      </trkpt>
      <trkpt lat="41.79767" lon="-70.995289">
        <ele>29.237431</ele>
        <time>2023-06-17T09:05:41.000Z</time>
      </trkpt>
      <trkpt lat="41.797797" lon="-70.995563">
        <ele>29.57186</ele>
        <time>2023-06-17T09:05:44.000Z</time>
      </trkpt>
      <trkpt lat="41.797964" lon="-70.996097">
        <ele>30.108884</ele>
        <time>2023-06-17T09:05:49.000Z</time>
      </trkpt>
      <trkpt lat="41.798071" lon="-70.996449">
        <ele>30.436373</ele>
        <time>2023-06-17T09:05:52.000Z</time>
      </trkpt>
      <trkpt lat="41.798329" lon="-70.997203">
        <ele>31.143057</ele>
        <time>2023-06-17T09:05:59.000Z</time>
      </trkpt>
      <trkpt lat="41.798639" lon="-70.997908">
        <ele>31.83505</ele>
        <time>2023-06-17T09:06:06.000Z</time>
      </trkpt>
      <trkpt lat="41.800719" lon="-71.002007">
        <ele>29.488371</ele>
        <time>2023-06-17T09:06:47.000Z</time>
      </trkpt>
      <trkpt lat="41.801457" lon="-71.003899">
        <ele>30.729289</ele>
        <time>2023-06-17T09:07:05.000Z</time>
      </trkpt>
      <trkpt lat="41.802173" lon="-71.005971">
        <ele>32.975159</ele>
        <time>2023-06-17T09:07:24.000Z</time>
      </trkpt>
      <trkpt lat="41.802626" lon="-71.007609">
        <ele>32.852426</ele>
        <time>2023-06-17T09:07:38.000Z</time>
      </trkpt>
      <trkpt lat="41.802656" lon="-71.007786">
        <ele>32.804027</ele>
        <time>2023-06-17T09:07:40.000Z</time>
      </trkpt>
      <trkpt lat="41.802725" lon="-71.008109">
        <ele>32.713338</ele>
        <time>2023-06-17T09:07:43.000Z</time>
      </trkpt>
      <trkpt lat="41.802854" lon="-71.008716">
        <ele>32.317855</ele>
        <time>2023-06-17T09:07:48.000Z</time>
      </trkpt>
      <trkpt lat="41.803109" lon="-71.009914">
        <ele>30.696507</ele>
        <time>2023-06-17T09:07:58.000Z</time>
      </trkpt>
      <trkpt lat="41.803288" lon="-71.010811">
        <ele>29.471903</ele>
        <time>2023-06-17T09:08:06.000Z</time>
      </trkpt>
      <trkpt lat="41.803418" lon="-71.011447">
        <ele>28.72857</ele>
        <time>2023-06-17T09:08:11.000Z</time>
      </trkpt>
      <trkpt lat="41.803457" lon="-71.011731">
        <ele>28.407303</ele>
        <time>2023-06-17T09:08:13.000Z</time>
      </trkpt>
      <trkpt lat="41.803499" lon="-71.01212">
        <ele>27.985042</ele>
        <time>2023-06-17T09:08:16.000Z</time>
      </trkpt>
      <trkpt lat="41.803516" lon="-71.012458">
        <ele>27.609825</ele>
        <time>2023-06-17T09:08:19.000Z</time>
      </trkpt>
      <trkpt lat="41.803468" lon="-71.013102">
        <ele>26.892411</ele>
        <time>2023-06-17T09:08:24.000Z</time>
      </trkpt>
      <trkpt lat="41.803313" lon="-71.013752">
        <ele>26.649379</ele>
        <time>2023-06-17T09:08:30.000Z</time>
      </trkpt>
      <trkpt lat="41.803563" lon="-71.014214">
        <ele>26.522095</ele>
        <time>2023-06-17T09:08:35.000Z</time>
      </trkpt>
      <trkpt lat="41.804683" lon="-71.016644">
        <ele>25.710299</ele>
        <time>2023-06-17T09:08:59.000Z</time>
      </trkpt>
      <trkpt lat="41.804788" lon="-71.016905">
        <ele>25.607927</ele>
        <time>2023-06-17T09:09:01.000Z</time>
      </trkpt>
      <trkpt lat="41.805849" lon="-71.019104">
        <ele>22.701717</ele>
        <time>2023-06-17T09:09:23.000Z</time>
      </trkpt>
      <trkpt lat="41.80666" lon="-71.020833">
        <ele>20.014384</ele>
        <time>2023-06-17T09:09:40.000Z</time>
      </trkpt>
      <trkpt lat="41.807531" lon="-71.022607">
        <ele>18.975193</ele>
        <time>2023-06-17T09:09:58.000Z</time>
      </trkpt>
      <trkpt lat="41.809863" lon="-71.027382">
        <ele>23.486333</ele>
        <time>2023-06-17T09:10:45.000Z</time>
      </trkpt>
      <trkpt lat="41.810489" lon="-71.028574">
        <ele>23.04342</ele>
        <time>2023-06-17T09:10:57.000Z</time>
      </trkpt>
      <trkpt lat="41.811306" lon="-71.029659">
        <ele>22.292743</ele>
        <time>2023-06-17T09:11:10.000Z</time>
      </trkpt>
      <trkpt lat="41.811624" lon="-71.029841">
        <ele>21.976813</ele>
        <time>2023-06-17T09:11:14.000Z</time>
      </trkpt>
      <trkpt lat="41.811971" lon="-71.029911">
        <ele>21.674205</ele>
        <time>2023-06-17T09:11:18.000Z</time>
      </trkpt>
      <trkpt lat="41.812112" lon="-71.029904">
        <ele>21.535009</ele>
        <time>2023-06-17T09:11:20.000Z</time>
      </trkpt>
      <trkpt lat="41.813068" lon="-71.02971">
        <ele>20.96699</ele>
        <time>2023-06-17T09:11:31.000Z</time>
      </trkpt>
      <trkpt lat="41.81509" lon="-71.029273">
        <ele>20.380704</ele>
        <time>2023-06-17T09:11:54.000Z</time>
      </trkpt>
      <trkpt lat="41.816238" lon="-71.029007">
        <ele>19.496736</ele>
        <time>2023-06-17T09:12:07.000Z</time>
      </trkpt>
      <trkpt lat="41.816631" lon="-71.028871">
        <ele>19.060353</ele>
        <time>2023-06-17T09:12:12.000Z</time>
      </trkpt>
      <trkpt lat="41.816633" lon="-71.028869">
        <ele>19.052445</ele>
        <time>2023-06-17T09:12:12.000Z</time>
      </trkpt>
      <trkpt lat="41.817271" lon="-71.028616">
        <ele>18.329753</ele>
        <time>2023-06-17T09:12:19.000Z</time>
      </trkpt>
      <trkpt lat="41.818051" lon="-71.028212">
        <ele>17.401771</ele>
        <time>2023-06-17T09:12:28.000Z</time>
      </trkpt>
      <trkpt lat="41.818158" lon="-71.028148">
        <ele>17.265679</ele>
        <time>2023-06-17T09:12:29.000Z</time>
      </trkpt>
      <trkpt lat="41.818825" lon="-71.027782">
        <ele>16.452019</ele>
        <time>2023-06-17T09:12:37.000Z</time>
      </trkpt>
      <trkpt lat="41.819102" lon="-71.027626">
        <ele>16.114151</ele>
        <time>2023-06-17T09:12:40.000Z</time>
      </trkpt>
      <trkpt lat="41.819851" lon="-71.027186">
        <ele>15.266985</ele>
        <time>2023-06-17T09:12:49.000Z</time>
      </trkpt>
      <trkpt lat="41.820025" lon="-71.02709">
        <ele>15.109745</ele>
        <time>2023-06-17T09:12:51.000Z</time>
      </trkpt>
      <trkpt lat="41.821434" lon="-71.026295">
        <ele>13.98987</ele>
        <time>2023-06-17T09:13:08.000Z</time>
      </trkpt>
      <trkpt lat="41.822112" lon="-71.025795">
        <ele>14.005122</ele>
        <time>2023-06-17T09:13:17.000Z</time>
      </trkpt>
      <trkpt lat="41.822737" lon="-71.02517">
        <ele>14.020594</ele>
        <time>2023-06-17T09:13:26.000Z</time>
      </trkpt>
      <trkpt lat="41.826235" lon="-71.021217">
        <ele>14.66042</ele>
        <time>2023-06-17T09:14:17.000Z</time>
      </trkpt>
      <trkpt lat="41.826597" lon="-71.020751">
        <ele>14.670327</ele>
        <time>2023-06-17T09:14:23.000Z</time>
      </trkpt>
      <trkpt lat="41.826482" lon="-71.020586">
        <ele>14.673623</ele>
        <time>2023-06-17T09:14:25.000Z</time>
      </trkpt>
      <trkpt lat="41.826269" lon="-71.020218">
        <ele>14.745827</ele>
        <time>2023-06-17T09:14:29.000Z</time>
      </trkpt>
      <trkpt lat="41.826077" lon="-71.019632">
        <ele>15.034599</ele>
        <time>2023-06-17T09:14:34.000Z</time>
      </trkpt>
      <trkpt lat="41.826017" lon="-71.019352">
        <ele>15.170045</ele>
        <time>2023-06-17T09:14:36.000Z</time>
      </trkpt>
      <trkpt lat="41.825961" lon="-71.019068">
        <ele>15.301683</ele>
        <time>2023-06-17T09:14:38.000Z</time>
      </trkpt>
      <trkpt lat="41.825707" lon="-71.018089">
        <ele>15.773846</ele>
        <time>2023-06-17T09:14:47.000Z</time>
      </trkpt>
      <trkpt lat="41.825572" lon="-71.01773">
        <ele>16.634427</ele>
        <time>2023-06-17T09:14:50.000Z</time>
      </trkpt>
      <trkpt lat="41.825343" lon="-71.017371">
        <ele>17.624814</ele>
        <time>2023-06-17T09:14:54.000Z</time>
      </trkpt>
      <trkpt lat="41.824873" lon="-71.016522">
        <ele>19.856522</ele>
        <time>2023-06-17T09:15:03.000Z</time>
      </trkpt>
      <trkpt lat="41.824568" lon="-71.015864">
        <ele>21.630179</ele>
        <time>2023-06-17T09:15:09.000Z</time>
      </trkpt>
      <trkpt lat="41.824096" lon="-71.014542">
        <ele>25.42489</ele>
        <time>2023-06-17T09:15:21.000Z</time>
      </trkpt>
      <trkpt lat="41.823811" lon="-71.014028">
        <ele>27.043014</ele>
        <time>2023-06-17T09:15:26.000Z</time>
      </trkpt>
      <trkpt lat="41.823758" lon="-71.013921">
        <ele>27.231409</ele>
        <time>2023-06-17T09:15:27.000Z</time>
      </trkpt>
      <trkpt lat="41.823385" lon="-71.013283">
        <ele>28.038051</ele>
        <time>2023-06-17T09:15:34.000Z</time>
      </trkpt>
      <trkpt lat="41.822076" lon="-71.011612">
        <ele>30.055869</ele>
        <time>2023-06-17T09:15:54.000Z</time>
      </trkpt>
      <trkpt lat="41.821075" lon="-71.010359">
        <ele>31.228209</ele>
        <time>2023-06-17T09:16:09.000Z</time>
      </trkpt>
      <trkpt lat="41.82072" lon="-71.00966">
        <ele>32.067276</ele>
        <time>2023-06-17T09:16:16.000Z</time>
      </trkpt>
      <trkpt lat="41.8199" lon="-71.007707">
        <ele>34.59475</ele>
        <time>2023-06-17T09:16:35.000Z</time>
      </trkpt>
      <trkpt lat="41.819493" lon="-71.006357">
        <ele>36.437789</ele>
        <time>2023-06-17T09:16:47.000Z</time>
      </trkpt>
      <trkpt lat="41.819278" lon="-71.005242">
        <ele>37.461542</ele>
        <time>2023-06-17T09:16:57.000Z</time>
      </trkpt>
      <trkpt lat="41.819091" lon="-71.00473">
        <ele>37.969291</ele>
        <time>2023-06-17T09:17:02.000Z</time>
      </trkpt>
      <trkpt lat="41.81872" lon="-71.003711">
        <ele>37.62397</ele>
        <time>2023-06-17T09:17:11.000Z</time>
      </trkpt>
      <trkpt lat="41.818586" lon="-71.003289">
        <ele>36.863715</ele>
        <time>2023-06-17T09:17:15.000Z</time>
      </trkpt>
      <trkpt lat="41.818433" lon="-71.002966">
        <ele>36.218046</ele>
        <time>2023-06-17T09:17:18.000Z</time>
      </trkpt>
      <trkpt lat="41.817824" lon="-71.00209">
        <ele>33.981447</ele>
        <time>2023-06-17T09:17:28.000Z</time>
      </trkpt>
      <trkpt lat="41.817578" lon="-71.001574">
        <ele>31.976887</ele>
        <time>2023-06-17T09:17:33.000Z</time>
      </trkpt>
      <trkpt lat="41.817365" lon="-71.001261">
        <ele>30.553757</ele>
        <time>2023-06-17T09:17:37.000Z</time>
      </trkpt>
      <trkpt lat="41.817216" lon="-71.001069">
        <ele>29.617214</ele>
        <time>2023-06-17T09:17:39.000Z</time>
      </trkpt>
      <trkpt lat="41.816941" lon="-71.00072">
        <ele>27.971496</ele>
        <time>2023-06-17T09:17:43.000Z</time>
      </trkpt>
      <trkpt lat="41.816704" lon="-71.000327">
        <ele>26.337985</ele>
        <time>2023-06-17T09:17:47.000Z</time>
      </trkpt>
      <trkpt lat="41.815825" lon="-70.999456">
        <ele>23.089618</ele>
        <time>2023-06-17T09:17:59.000Z</time>
      </trkpt>
      <trkpt lat="41.815631" lon="-70.999258">
        <ele>22.376345</ele>
        <time>2023-06-17T09:18:02.000Z</time>
      </trkpt>
      <trkpt lat="41.81554" lon="-70.999172">
        <ele>22.065876</ele>
        <time>2023-06-17T09:18:03.000Z</time>
      </trkpt>
      <trkpt lat="41.814135" lon="-70.997924">
        <ele>20.749001</ele>
        <time>2023-06-17T09:18:22.000Z</time>
      </trkpt>
      <trkpt lat="41.813639" lon="-70.997148">
        <ele>21.240969</ele>
        <time>2023-06-17T09:18:30.000Z</time>
      </trkpt>
      <trkpt lat="41.813467" lon="-70.99656">
        <ele>22.11669</ele>
        <time>2023-06-17T09:18:35.000Z</time>
      </trkpt>
      <trkpt lat="41.81326" lon="-70.993672">
        <ele>25.634596</ele>
        <time>2023-06-17T09:18:59.000Z</time>
      </trkpt>
      <trkpt lat="41.813264" lon="-70.992707">
        <ele>26.603959</ele>
        <time>2023-06-17T09:19:07.000Z</time>
      </trkpt>
      <trkpt lat="41.813314" lon="-70.991934">
        <ele>26.95128</ele>
        <time>2023-06-17T09:19:13.000Z</time>
      </trkpt>
      <trkpt lat="41.813552" lon="-70.990441">
        <ele>27.644551</ele>
        <time>2023-06-17T09:19:26.000Z</time>
      </trkpt>
      <trkpt lat="41.813573" lon="-70.990386">
        <ele>27.744556</ele>
        <time>2023-06-17T09:19:27.000Z</time>
      </trkpt>
      <trkpt lat="41.813715" lon="-70.989486">
        <ele>29.251368</ele>
        <time>2023-06-17T09:19:35.000Z</time>
      </trkpt>
      <trkpt lat="41.81414" lon="-70.986149">
        <ele>35.411153</ele>
        <time>2023-06-17T09:20:03.000Z</time>
      </trkpt>
      <trkpt lat="41.814105" lon="-70.985608">
        <ele>36.283293</ele>
        <time>2023-06-17T09:20:08.000Z</time>
      </trkpt>
      <trkpt lat="41.813997" lon="-70.985081">
        <ele>36.296744</ele>
        <time>2023-06-17T09:20:13.000Z</time>
      </trkpt>
      <trkpt lat="41.814297" lon="-70.984673">
        <ele>36.310838</ele>
        <time>2023-06-17T09:20:18.000Z</time>
      </trkpt>
      <trkpt lat="41.815206" lon="-70.983577">
        <ele>35.6878</ele>
        <time>2023-06-17T09:20:32.000Z</time>
      </trkpt>
      <trkpt lat="41.815359" lon="-70.983418">
        <ele>35.298341</ele>
        <time>2023-06-17T09:20:34.000Z</time>
      </trkpt>
      <trkpt lat="41.816796" lon="-70.982524">
        <ele>32.511623</ele>
        <time>2023-06-17T09:20:52.000Z</time>
      </trkpt>
      <trkpt lat="41.817215" lon="-70.982307">
        <ele>32.09698</ele>
        <time>2023-06-17T09:20:57.000Z</time>
      </trkpt>
      <trkpt lat="41.817692" lon="-70.982058">
        <ele>31.617204</ele>
        <time>2023-06-17T09:21:03.000Z</time>
      </trkpt>
      <trkpt lat="41.81828" lon="-70.981713">
        <ele>31.136913</ele>
        <time>2023-06-17T09:21:10.000Z</time>
      </trkpt>
      <trkpt lat="41.818938" lon="-70.981281">
        <ele>31.123505</ele>
        <time>2023-06-17T09:21:18.000Z</time>
      </trkpt>
      <trkpt lat="41.81911" lon="-70.981164">
        <ele>31.119709</ele>
        <time>2023-06-17T09:21:20.000Z</time>
      </trkpt>
      <trkpt lat="41.820315" lon="-70.980105">
        <ele>31.485845</ele>
        <time>2023-06-17T09:21:36.000Z</time>
      </trkpt>
      <trkpt lat="41.820451" lon="-70.980051">
        <ele>31.563557</ele>
        <time>2023-06-17T09:21:38.000Z</time>
      </trkpt>
      <trkpt lat="41.82069" lon="-70.980014">
        <ele>31.700179</ele>
        <time>2023-06-17T09:21:41.000Z</time>
      </trkpt>
      <trkpt lat="41.821313" lon="-70.980092">
        <ele>32.049574</ele>
        <time>2023-06-17T09:21:48.000Z</time>
      </trkpt>
      <trkpt lat="41.822652" lon="-70.980481">
        <ele>33.480566</ele>
        <time>2023-06-17T09:22:03.000Z</time>
      </trkpt>
      <trkpt lat="41.823079" lon="-70.980611">
        <ele>33.944839</ele>
        <time>2023-06-17T09:22:08.000Z</time>
      </trkpt>
      <trkpt lat="41.823801" lon="-70.980859">
        <ele>34.677486</ele>
        <time>2023-06-17T09:22:16.000Z</time>
      </trkpt>
      <trkpt lat="41.823869" lon="-70.980883">
        <ele>34.757885</ele>
        <time>2023-06-17T09:22:17.000Z</time>
      </trkpt>
      <trkpt lat="41.824072" lon="-70.980939">
        <ele>34.962528</ele>
        <time>2023-06-17T09:22:19.000Z</time>
      </trkpt>
      <trkpt lat="41.824092" lon="-70.980934">
        <ele>34.971396</ele>
        <time>2023-06-17T09:22:19.000Z</time>
      </trkpt>
      <trkpt lat="41.824777" lon="-70.981135">
        <ele>35.658099</ele>
        <time>2023-06-17T09:22:27.000Z</time>
      </trkpt>
      <trkpt lat="41.825441" lon="-70.981357">
        <ele>36.606843</ele>
        <time>2023-06-17T09:22:35.000Z</time>
      </trkpt>
      <trkpt lat="41.825772" lon="-70.981481">
        <ele>37.11971</ele>
        <time>2023-06-17T09:22:39.000Z</time>
      </trkpt>
      <trkpt lat="41.826265" lon="-70.981785">
        <ele>37.939258</ele>
        <time>2023-06-17T09:22:45.000Z</time>
      </trkpt>
      <trkpt lat="41.82661" lon="-70.982092">
        <ele>38.552128</ele>
        <time>2023-06-17T09:22:50.000Z</time>
      </trkpt>
      <trkpt lat="41.826786" lon="-70.982324">
        <ele>38.909299</ele>
        <time>2023-06-17T09:22:53.000Z</time>
      </trkpt>
      <trkpt lat="41.82689" lon="-70.982564">
        <ele>39.193977</ele>
        <time>2023-06-17T09:22:55.000Z</time>
      </trkpt>
      <trkpt lat="41.827402" lon="-70.983634">
        <ele>40.528682</ele>
        <time>2023-06-17T09:23:06.000Z</time>
      </trkpt>
      <trkpt lat="41.827881" lon="-70.98455">
        <ele>41.416212</ele>
        <time>2023-06-17T09:23:15.000Z</time>
      </trkpt>
      <trkpt lat="41.828101" lon="-70.98435">
        <ele>41.642321</ele>
        <time>2023-06-17T09:23:18.000Z</time>
      </trkpt>
      <trkpt lat="41.828639" lon="-70.983897">
        <ele>42.156363</ele>
        <time>2023-06-17T09:23:25.000Z</time>
      </trkpt>
      <trkpt lat="41.829018" lon="-70.983421">
        <ele>42.516948</ele>
        <time>2023-06-17T09:23:31.000Z</time>
      </trkpt>
      <trkpt lat="41.829129" lon="-70.983104">
        <ele>42.59417</ele>
        <time>2023-06-17T09:23:34.000Z</time>
      </trkpt>
      <trkpt lat="41.829189" lon="-70.982768">
        <ele>42.671992</ele>
        <time>2023-06-17T09:23:37.000Z</time>
      </trkpt>
      <trkpt lat="41.829256" lon="-70.982253">
        <ele>42.786286</ele>
        <time>2023-06-17T09:23:41.000Z</time>
      </trkpt>
      <trkpt lat="41.829318" lon="-70.981843">
        <ele>42.88035</ele>
        <time>2023-06-17T09:23:44.000Z</time>
      </trkpt>
      <trkpt lat="41.829353" lon="-70.981636">
        <ele>42.926422</ele>
        <time>2023-06-17T09:23:46.000Z</time>
      </trkpt>
      <trkpt lat="41.829361" lon="-70.981561">
        <ele>42.944007</ele>
        <time>2023-06-17T09:23:47.000Z</time>
      </trkpt>
      <trkpt lat="41.829404" lon="-70.981298">
        <ele>43.000679</ele>
        <time>2023-06-17T09:23:49.000Z</time>
      </trkpt>
      <trkpt lat="41.829599" lon="-70.980691">
        <ele>42.736056</ele>
        <time>2023-06-17T09:23:54.000Z</time>
      </trkpt>
      <trkpt lat="41.829802" lon="-70.980273">
        <ele>42.475958</ele>
        <time>2023-06-17T09:23:58.000Z</time>
      </trkpt>
      <trkpt lat="41.830101" lon="-70.979531">
        <ele>42.049535</ele>
        <time>2023-06-17T09:24:05.000Z</time>
      </trkpt>
      <trkpt lat="41.830197" lon="-70.979027">
        <ele>41.766076</ele>
        <time>2023-06-17T09:24:09.000Z</time>
      </trkpt>
      <trkpt lat="41.830194" lon="-70.978726">
        <ele>41.42694</ele>
        <time>2023-06-17T09:24:11.000Z</time>
      </trkpt>
      <trkpt lat="41.8302" lon="-70.978647">
        <ele>41.331828</ele>
        <time>2023-06-17T09:24:12.000Z</time>
      </trkpt>
      <trkpt lat="41.830211" lon="-70.977463">
        <ele>39.927925</ele>
        <time>2023-06-17T09:24:22.000Z</time>
      </trkpt>
      <trkpt lat="41.830247" lon="-70.977273">
        <ele>39.696353</ele>
        <time>2023-06-17T09:24:24.000Z</time>
      </trkpt>
      <trkpt lat="41.830404" lon="-70.976806">
        <ele>39.112582</ele>
        <time>2023-06-17T09:24:28.000Z</time>
      </trkpt>
      <trkpt lat="41.830486" lon="-70.976641">
        <ele>38.897328</ele>
        <time>2023-06-17T09:24:30.000Z</time>
      </trkpt>
      <trkpt lat="41.830653" lon="-70.976372">
        <ele>38.589626</ele>
        <time>2023-06-17T09:24:33.000Z</time>
      </trkpt>
      <trkpt lat="41.831102" lon="-70.97585">
        <ele>37.888951</ele>
        <time>2023-06-17T09:24:40.000Z</time>
      </trkpt>
      <trkpt lat="41.831204" lon="-70.97574">
        <ele>37.737304</ele>
        <time>2023-06-17T09:24:41.000Z</time>
      </trkpt>
      <trkpt lat="41.83144" lon="-70.975482">
        <ele>37.365139</ele>
        <time>2023-06-17T09:24:44.000Z</time>
      </trkpt>
      <trkpt lat="41.832001" lon="-70.975006">
        <ele>36.589258</ele>
        <time>2023-06-17T09:24:51.000Z</time>
      </trkpt>
      <trkpt lat="41.832583" lon="-70.974535">
        <ele>35.821389</ele>
        <time>2023-06-17T09:24:59.000Z</time>
      </trkpt>
      <trkpt lat="41.833099" lon="-70.973896">
        <ele>35.031289</ele>
        <time>2023-06-17T09:25:07.000Z</time>
      </trkpt>
      <trkpt lat="41.833721" lon="-70.97284">
        <ele>33.633609</ele>
        <time>2023-06-17T09:25:18.000Z</time>
      </trkpt>
      <trkpt lat="41.833873" lon="-70.972516">
        <ele>33.207785</ele>
        <time>2023-06-17T09:25:21.000Z</time>
      </trkpt>
      <trkpt lat="41.833967" lon="-70.972148">
        <ele>32.79426</ele>
        <time>2023-06-17T09:25:24.000Z</time>
      </trkpt>
      <trkpt lat="41.834033" lon="-70.970954">
        <ele>31.485368</ele>
        <time>2023-06-17T09:25:34.000Z</time>
      </trkpt>
      <trkpt lat="41.834219" lon="-70.970164">
        <ele>30.607656</ele>
        <time>2023-06-17T09:25:41.000Z</time>
      </trkpt>
      <trkpt lat="41.834622" lon="-70.969108">
        <ele>29.528662</ele>
        <time>2023-06-17T09:25:51.000Z</time>
      </trkpt>
      <trkpt lat="41.83665" lon="-70.964203">
        <ele>29.495897</ele>
        <time>2023-06-17T09:26:37.000Z</time>
      </trkpt>
      <trkpt lat="41.836918" lon="-70.96315">
        <ele>30.267691</ele>
        <time>2023-06-17T09:26:46.000Z</time>
      </trkpt>
      <trkpt lat="41.837269" lon="-70.961458">
        <ele>33.911702</ele>
        <time>2023-06-17T09:27:01.000Z</time>
      </trkpt>
      <trkpt lat="41.837372" lon="-70.960815">
        <ele>35.429536</ele>
        <time>2023-06-17T09:27:06.000Z</time>
      </trkpt>
      <trkpt lat="41.837517" lon="-70.960368">
        <ele>36.638353</ele>
        <time>2023-06-17T09:27:10.000Z</time>
      </trkpt>
      <trkpt lat="41.837661" lon="-70.960062">
        <ele>37.625179</ele>
        <time>2023-06-17T09:27:13.000Z</time>
      </trkpt>
      <trkpt lat="41.837832" lon="-70.959821">
        <ele>38.524952</ele>
        <time>2023-06-17T09:27:16.000Z</time>
      </trkpt>
      <trkpt lat="41.838079" lon="-70.959632">
        <ele>39.557126</ele>
        <time>2023-06-17T09:27:19.000Z</time>
      </trkpt>
      <trkpt lat="41.838564" lon="-70.959333">
        <ele>41.442729</ele>
        <time>2023-06-17T09:27:25.000Z</time>
      </trkpt>
      <trkpt lat="41.838649" lon="-70.959279">
        <ele>41.815026</ele>
        <time>2023-06-17T09:27:26.000Z</time>
      </trkpt>
      <trkpt lat="41.838953" lon="-70.959092">
        <ele>42.616846</ele>
        <time>2023-06-17T09:27:30.000Z</time>
      </trkpt>
      <trkpt lat="41.839723" lon="-70.958663">
        <ele>42.718943</ele>
        <time>2023-06-17T09:27:39.000Z</time>
      </trkpt>
      <trkpt lat="41.840435" lon="-70.958237">
        <ele>42.815712</ele>
        <time>2023-06-17T09:27:48.000Z</time>
      </trkpt>
      <trkpt lat="41.84071" lon="-70.95806">
        <ele>42.264682</ele>
        <time>2023-06-17T09:27:51.000Z</time>
      </trkpt>
      <trkpt lat="41.840763" lon="-70.958044">
        <ele>42.14353</ele>
        <time>2023-06-17T09:27:52.000Z</time>
      </trkpt>
      <trkpt lat="41.842011" lon="-70.957298">
        <ele>38.856356</ele>
        <time>2023-06-17T09:28:07.000Z</time>
      </trkpt>
      <trkpt lat="41.843759" lon="-70.956268">
        <ele>35.104655</ele>
        <time>2023-06-17T09:28:28.000Z</time>
      </trkpt>
      <trkpt lat="41.844" lon="-70.956115">
        <ele>34.446373</ele>
        <time>2023-06-17T09:28:31.000Z</time>
      </trkpt>
      <trkpt lat="41.844629" lon="-70.955741">
        <ele>32.814467</ele>
        <time>2023-06-17T09:28:39.000Z</time>
      </trkpt>
      <trkpt lat="41.845012" lon="-70.955413">
        <ele>31.750781</ele>
        <time>2023-06-17T09:28:44.000Z</time>
      </trkpt>
      <trkpt lat="41.845094" lon="-70.955273">
        <ele>31.421177</ele>
        <time>2023-06-17T09:28:45.000Z</time>
      </trkpt>
      <trkpt lat="41.845113" lon="-70.95523">
        <ele>31.323722</ele>
        <time>2023-06-17T09:28:45.000Z</time>
      </trkpt>
      <trkpt lat="41.845441" lon="-70.954657">
        <ele>30.377562</ele>
        <time>2023-06-17T09:28:51.000Z</time>
      </trkpt>
      <trkpt lat="41.843961" lon="-70.952844">
        <ele>28.805376</ele>
        <time>2023-06-17T09:29:13.000Z</time>
      </trkpt>
      <trkpt lat="41.843456" lon="-70.952393">
        <ele>29.031817</ele>
        <time>2023-06-17T09:29:20.000Z</time>
      </trkpt>
      <trkpt lat="41.841337" lon="-70.95112">
        <ele>32.002082</ele>
        <time>2023-06-17T09:29:46.000Z</time>
      </trkpt>
      <trkpt lat="41.840769" lon="-70.951939">
        <ele>34.400337</ele>
        <time>2023-06-17T09:29:55.000Z</time>
      </trkpt>
      <trkpt lat="41.840284" lon="-70.952206">
        <ele>36.142836</ele>
        <time>2023-06-17T09:30:01.000Z</time>
      </trkpt>
      <trkpt lat="41.839709" lon="-70.952241">
        <ele>38.032974</ele>
        <time>2023-06-17T09:30:07.000Z</time>
      </trkpt>
      <trkpt lat="41.838609" lon="-70.951914">
        <ele>40.548741</ele>
        <time>2023-06-17T09:30:20.000Z</time>
      </trkpt>
      <trkpt lat="41.838057" lon="-70.951682">
        <ele>41.791763</ele>
        <time>2023-06-17T09:30:26.000Z</time>
      </trkpt>
      <trkpt lat="41.837918" lon="-70.951607">
        <ele>42.117705</ele>
        <time>2023-06-17T09:30:28.000Z</time>
      </trkpt>
      <trkpt lat="41.83775" lon="-70.951458">
        <ele>41.610652</ele>
        <time>2023-06-17T09:30:30.000Z</time>
      </trkpt>
      <trkpt lat="41.837678" lon="-70.951292">
        <ele>41.242434</ele>
        <time>2023-06-17T09:30:32.000Z</time>
      </trkpt>
      <trkpt lat="41.837496" lon="-70.950366">
        <ele>39.351926</ele>
        <time>2023-06-17T09:30:40.000Z</time>
      </trkpt>
      <trkpt lat="41.837223" lon="-70.949736">
        <ele>37.905938</ele>
        <time>2023-06-17T09:30:46.000Z</time>
      </trkpt>
      <trkpt lat="41.837202" lon="-70.949701">
        <ele>37.839289</ele>
        <time>2023-06-17T09:30:46.000Z</time>
      </trkpt>
      <trkpt lat="41.837137" lon="-70.949605">
        <ele>37.551641</ele>
        <time>2023-06-17T09:30:47.000Z</time>
      </trkpt>
      <trkpt lat="41.836328" lon="-70.948332">
        <ele>32.603601</ele>
        <time>2023-06-17T09:31:01.000Z</time>
      </trkpt>
      <trkpt lat="41.835891" lon="-70.947875">
        <ele>30.299777</ele>
        <time>2023-06-17T09:31:07.000Z</time>
      </trkpt>
      <trkpt lat="41.835315" lon="-70.947414">
        <ele>28.150448</ele>
        <time>2023-06-17T09:31:14.000Z</time>
      </trkpt>
      <trkpt lat="41.83388" lon="-70.946396">
        <ele>23.218556</ele>
        <time>2023-06-17T09:31:32.000Z</time>
      </trkpt>
      <trkpt lat="41.834608" lon="-70.945296">
        <ele>20.030775</ele>
        <time>2023-06-17T09:31:44.000Z</time>
      </trkpt>
      <trkpt lat="41.83493" lon="-70.944439">
        <ele>18.593933</ele>
        <time>2023-06-17T09:31:52.000Z</time>
      </trkpt>
      <trkpt lat="41.835151" lon="-70.943576">
        <ele>17.651586</ele>
        <time>2023-06-17T09:32:00.000Z</time>
      </trkpt>
      <trkpt lat="41.835197" lon="-70.943257">
        <ele>17.318367</ele>
        <time>2023-06-17T09:32:03.000Z</time>
      </trkpt>
      <trkpt lat="41.835169" lon="-70.943037">
        <ele>17.094528</ele>
        <time>2023-06-17T09:32:05.000Z</time>
      </trkpt>
      <trkpt lat="41.835062" lon="-70.942877">
        <ele>16.882883</ele>
        <time>2023-06-17T09:32:07.000Z</time>
      </trkpt>
      <trkpt lat="41.834415" lon="-70.942604">
        <ele>16.757776</ele>
        <time>2023-06-17T09:32:15.000Z</time>
      </trkpt>
      <trkpt lat="41.834089" lon="-70.942387">
        <ele>16.804971</ele>
        <time>2023-06-17T09:32:19.000Z</time>
      </trkpt>
      <trkpt lat="41.833665" lon="-70.941984">
        <ele>16.871012</ele>
        <time>2023-06-17T09:32:25.000Z</time>
      </trkpt>
      <trkpt lat="41.833357" lon="-70.941514">
        <ele>16.940703</ele>
        <time>2023-06-17T09:32:30.000Z</time>
      </trkpt>
      <trkpt lat="41.833216" lon="-70.941226">
        <ele>17.003948</ele>
        <time>2023-06-17T09:32:33.000Z</time>
      </trkpt>
      <trkpt lat="41.832891" lon="-70.940469">
        <ele>17.155867</ele>
        <time>2023-06-17T09:32:40.000Z</time>
      </trkpt>
      <trkpt lat="41.832798" lon="-70.939851">
        <ele>17.267588</ele>
        <time>2023-06-17T09:32:45.000Z</time>
      </trkpt>
      <trkpt lat="41.832836" lon="-70.939337">
        <ele>17.323127</ele>
        <time>2023-06-17T09:32:49.000Z</time>
      </trkpt>
      <trkpt lat="41.833157" lon="-70.937468">
        <ele>16.871565</ele>
        <time>2023-06-17T09:33:05.000Z</time>
      </trkpt>
      <trkpt lat="41.833155" lon="-70.936946">
        <ele>16.758245</ele>
        <time>2023-06-17T09:33:09.000Z</time>
      </trkpt>
      <trkpt lat="41.833043" lon="-70.93649">
        <ele>16.692977</ele>
        <time>2023-06-17T09:33:13.000Z</time>
      </trkpt>
      <trkpt lat="41.832818" lon="-70.936013">
        <ele>16.618732</ele>
        <time>2023-06-17T09:33:18.000Z</time>
      </trkpt>
      <trkpt lat="41.832018" lon="-70.935033">
        <ele>16.542325</ele>
        <time>2023-06-17T09:33:30.000Z</time>
      </trkpt>
      <trkpt lat="41.830684" lon="-70.933094">
        <ele>18.075309</ele>
        <time>2023-06-17T09:33:52.000Z</time>
      </trkpt>
      <trkpt lat="41.83011" lon="-70.932487">
        <ele>19.096837</ele>
        <time>2023-06-17T09:34:00.000Z</time>
      </trkpt>
      <trkpt lat="41.829372" lon="-70.931819">
        <ele>20.31856</ele>
        <time>2023-06-17T09:34:10.000Z</time>
      </trkpt>
      <trkpt lat="41.828242" lon="-70.930808">
        <ele>22.013689</ele>
        <time>2023-06-17T09:34:25.000Z</time>
      </trkpt>
      <trkpt lat="41.828199" lon="-70.930769">
        <ele>22.087988</ele>
        <time>2023-06-17T09:34:26.000Z</time>
      </trkpt>
      <trkpt lat="41.827612" lon="-70.930306">
        <ele>22.774052</ele>
        <time>2023-06-17T09:34:34.000Z</time>
      </trkpt>
      <trkpt lat="41.826482" lon="-70.929553">
        <ele>23.886228</ele>
        <time>2023-06-17T09:34:48.000Z</time>
      </trkpt>
      <trkpt lat="41.825822" lon="-70.929089">
        <ele>24.12354</ele>
        <time>2023-06-17T09:34:56.000Z</time>
      </trkpt>
      <trkpt lat="41.825075" lon="-70.928593">
        <ele>24.314518</ele>
        <time>2023-06-17T09:35:05.000Z</time>
      </trkpt>
      <trkpt lat="41.824246" lon="-70.928052">
        <ele>24.291872</ele>
        <time>2023-06-17T09:35:15.000Z</time>
      </trkpt>
      <trkpt lat="41.823758" lon="-70.927723">
        <ele>24.196266</ele>
        <time>2023-06-17T09:35:21.000Z</time>
      </trkpt>
      <trkpt lat="41.823289" lon="-70.927446">
        <ele>24.109606</ele>
        <time>2023-06-17T09:35:27.000Z</time>
      </trkpt>
      <trkpt lat="41.823191" lon="-70.927386">
        <ele>24.089542</ele>
        <time>2023-06-17T09:35:28.000Z</time>
      </trkpt>
      <trkpt lat="41.823054" lon="-70.92733">
        <ele>24.095379</ele>
        <time>2023-06-17T09:35:30.000Z</time>
      </trkpt>
      <trkpt lat="41.822952" lon="-70.927263">
        <ele>24.113728</ele>
        <time>2023-06-17T09:35:31.000Z</time>
      </trkpt>
      <trkpt lat="41.822837" lon="-70.927215">
        <ele>24.132566</ele>
        <time>2023-06-17T09:35:32.000Z</time>
      </trkpt>
      <trkpt lat="41.822601" lon="-70.927096">
        <ele>24.172626</ele>
        <time>2023-06-17T09:35:35.000Z</time>
      </trkpt>
      <trkpt lat="41.822205" lon="-70.926895">
        <ele>24.241856</ele>
        <time>2023-06-17T09:35:40.000Z</time>
      </trkpt>
      <trkpt lat="41.821375" lon="-70.926472">
        <ele>24.357915</ele>
        <time>2023-06-17T09:35:50.000Z</time>
      </trkpt>
      <trkpt lat="41.820965" lon="-70.926256">
        <ele>24.314225</ele>
        <time>2023-06-17T09:35:55.000Z</time>
      </trkpt>
      <trkpt lat="41.820794" lon="-70.926162">
        <ele>24.294465</ele>
        <time>2023-06-17T09:35:57.000Z</time>
      </trkpt>
      <trkpt lat="41.820169" lon="-70.925843">
        <ele>24.227768</ele>
        <time>2023-06-17T09:36:04.000Z</time>
      </trkpt>
      <trkpt lat="41.819791" lon="-70.925639">
        <ele>24.187892</ele>
        <time>2023-06-17T09:36:09.000Z</time>
      </trkpt>
      <trkpt lat="41.818242" lon="-70.924781">
        <ele>24.106329</ele>
        <time>2023-06-17T09:36:28.000Z</time>
      </trkpt>
      <trkpt lat="41.817665" lon="-70.924477">
        <ele>24.13426</ele>
        <time>2023-06-17T09:36:35.000Z</time>
      </trkpt>
      <trkpt lat="41.817182" lon="-70.924236">
        <ele>24.170178</ele>
        <time>2023-06-17T09:36:41.000Z</time>
      </trkpt>
      <trkpt lat="41.816767" lon="-70.923982">
        <ele>24.201386</ele>
        <time>2023-06-17T09:36:46.000Z</time>
      </trkpt>
      <trkpt lat="41.81605" lon="-70.923552">
        <ele>24.774237</ele>
        <time>2023-06-17T09:36:55.000Z</time>
      </trkpt>
      <trkpt lat="41.815598" lon="-70.92327">
        <ele>25.364766</ele>
        <time>2023-06-17T09:37:01.000Z</time>
      </trkpt>
      <trkpt lat="41.81519" lon="-70.923034">
        <ele>25.899784</ele>
        <time>2023-06-17T09:37:06.000Z</time>
      </trkpt>
      <trkpt lat="41.815143" lon="-70.922995">
        <ele>25.973274</ele>
        <time>2023-06-17T09:37:07.000Z</time>
      </trkpt>
      <trkpt lat="41.81489" lon="-70.922806">
        <ele>26.319981</ele>
        <time>2023-06-17T09:37:10.000Z</time>
      </trkpt>
      <trkpt lat="41.814622" lon="-70.922554">
        <ele>26.816764</ele>
        <time>2023-06-17T09:37:14.000Z</time>
      </trkpt>
      <trkpt lat="41.81446" lon="-70.922397">
        <ele>27.13317</ele>
        <time>2023-06-17T09:37:16.000Z</time>
      </trkpt>
      <trkpt lat="41.813201" lon="-70.921484">
        <ele>29.319288</ele>
        <time>2023-06-17T09:37:32.000Z</time>
      </trkpt>
      <trkpt lat="41.812957" lon="-70.921317">
        <ele>29.393805</ele>
        <time>2023-06-17T09:37:35.000Z</time>
      </trkpt>
      <trkpt lat="41.812608" lon="-70.921095">
        <ele>29.503157</ele>
        <time>2023-06-17T09:37:39.000Z</time>
      </trkpt>
      <trkpt lat="41.812005" lon="-70.920909">
        <ele>29.674003</ele>
        <time>2023-06-17T09:37:46.000Z</time>
      </trkpt>
      <trkpt lat="41.811313" lon="-70.920451">
        <ele>29.676776</ele>
        <time>2023-06-17T09:37:55.000Z</time>
      </trkpt>
      <trkpt lat="41.811281" lon="-70.920433">
        <ele>29.66693</ele>
        <time>2023-06-17T09:37:55.000Z</time>
      </trkpt>
      <trkpt lat="41.811246" lon="-70.920396">
        <ele>29.651717</ele>
        <time>2023-06-17T09:37:55.000Z</time>
      </trkpt>
      <trkpt lat="41.81053" lon="-70.919873">
        <ele>29.385494</ele>
        <time>2023-06-17T09:38:04.000Z</time>
      </trkpt>
      <trkpt lat="41.809051" lon="-70.918964">
        <ele>28.407018</ele>
        <time>2023-06-17T09:38:22.000Z</time>
      </trkpt>
      <trkpt lat="41.807776" lon="-70.918391">
        <ele>27.685539</ele>
        <time>2023-06-17T09:38:37.000Z</time>
      </trkpt>
      <trkpt lat="41.807915" lon="-70.917836">
        <ele>27.561904</ele>
        <time>2023-06-17T09:38:42.000Z</time>
      </trkpt>
      <trkpt lat="41.808838" lon="-70.914498">
        <ele>27.806884</ele>
        <time>2023-06-17T09:39:12.000Z</time>
      </trkpt>
      <trkpt lat="41.809229" lon="-70.913">
        <ele>27.567669</ele>
        <time>2023-06-17T09:39:25.000Z</time>
      </trkpt>
      <trkpt lat="41.809405" lon="-70.912604">
        <ele>27.497816</ele>
        <time>2023-06-17T09:39:29.000Z</time>
      </trkpt>
      <trkpt lat="41.809839" lon="-70.911891">
        <ele>27.596785</ele>
        <time>2023-06-17T09:39:37.000Z</time>
      </trkpt>
      <trkpt lat="41.810601" lon="-70.910324">
        <ele>27.85688</ele>
        <time>2023-06-17T09:39:53.000Z</time>
      </trkpt>
      <trkpt lat="41.811089" lon="-70.90913">
        <ele>27.446037</ele>
        <time>2023-06-17T09:40:04.000Z</time>
      </trkpt>
      <trkpt lat="41.812817" lon="-70.902688">
        <ele>20.501561</ele>
        <time>2023-06-17T09:41:01.000Z</time>
      </trkpt>
      <trkpt lat="41.813177" lon="-70.902172">
        <ele>19.699126</ele>
        <time>2023-06-17T09:41:07.000Z</time>
      </trkpt>
      <trkpt lat="41.81443" lon="-70.901334">
        <ele>17.882208</ele>
        <time>2023-06-17T09:41:23.000Z</time>
      </trkpt>
      <trkpt lat="41.814794" lon="-70.900937">
        <ele>17.307468</ele>
        <time>2023-06-17T09:41:28.000Z</time>
      </trkpt>
      <trkpt lat="41.814956" lon="-70.900669">
        <ele>16.99478</ele>
        <time>2023-06-17T09:41:31.000Z</time>
      </trkpt>
      <trkpt lat="41.815307" lon="-70.899889">
        <ele>16.800633</ele>
        <time>2023-06-17T09:41:39.000Z</time>
      </trkpt>
      <trkpt lat="41.815399" lon="-70.899606">
        <ele>16.766722</ele>
        <time>2023-06-17T09:41:42.000Z</time>
      </trkpt>
      <trkpt lat="41.815407" lon="-70.899363">
        <ele>16.742249</ele>
        <time>2023-06-17T09:41:44.000Z</time>
      </trkpt>
      <trkpt lat="41.815369" lon="-70.899192">
        <ele>16.722619</ele>
        <time>2023-06-17T09:41:45.000Z</time>
      </trkpt>
      <trkpt lat="41.81487" lon="-70.898637">
        <ele>16.630333</ele>
        <time>2023-06-17T09:41:52.000Z</time>
      </trkpt>
      <trkpt lat="41.814765" lon="-70.898398">
        <ele>16.703289</ele>
        <time>2023-06-17T09:41:54.000Z</time>
      </trkpt>
      <trkpt lat="41.814692" lon="-70.89817">
        <ele>16.775134</ele>
        <time>2023-06-17T09:41:56.000Z</time>
      </trkpt>
      <trkpt lat="41.814176" lon="-70.896549">
        <ele>17.321488</ele>
        <time>2023-06-17T09:42:11.000Z</time>
      </trkpt>
      <trkpt lat="41.814054" lon="-70.896037">
        <ele>17.47803</ele>
        <time>2023-06-17T09:42:15.000Z</time>
      </trkpt>
      <trkpt lat="41.813877" lon="-70.894964">
        <ele>17.801946</ele>
        <time>2023-06-17T09:42:24.000Z</time>
      </trkpt>
      <trkpt lat="41.813808" lon="-70.893984">
        <ele>18.129213</ele>
        <time>2023-06-17T09:42:32.000Z</time>
      </trkpt>
      <trkpt lat="41.813833" lon="-70.893159">
        <ele>18.893675</ele>
        <time>2023-06-17T09:42:39.000Z</time>
      </trkpt>
      <trkpt lat="41.813918" lon="-70.892589">
        <ele>19.421892</ele>
        <time>2023-06-17T09:42:44.000Z</time>
      </trkpt>
      <trkpt lat="41.814387" lon="-70.891144">
        <ele>21.165995</ele>
        <time>2023-06-17T09:42:57.000Z</time>
      </trkpt>
      <trkpt lat="41.814424" lon="-70.890523">
        <ele>22.019673</ele>
        <time>2023-06-17T09:43:02.000Z</time>
      </trkpt>
      <trkpt lat="41.814433" lon="-70.88923">
        <ele>23.886629</ele>
        <time>2023-06-17T09:43:13.000Z</time>
      </trkpt>
      <trkpt lat="41.814382" lon="-70.886118">
        <ele>29.244949</ele>
        <time>2023-06-17T09:43:39.000Z</time>
      </trkpt>
      <trkpt lat="41.814319" lon="-70.884286">
        <ele>32.09142</ele>
        <time>2023-06-17T09:43:54.000Z</time>
      </trkpt>
      <trkpt lat="41.814335" lon="-70.882941">
        <ele>32.830619</ele>
        <time>2023-06-17T09:44:05.000Z</time>
      </trkpt>
      <trkpt lat="41.814502" lon="-70.882972">
        <ele>32.956145</ele>
        <time>2023-06-17T09:44:07.000Z</time>
      </trkpt>
      <trkpt lat="41.815883" lon="-70.883113">
        <ele>32.24908</ele>
        <time>2023-06-17T09:44:22.000Z</time>
      </trkpt>
      <trkpt lat="41.816408" lon="-70.883175">
        <ele>31.668755</ele>
        <time>2023-06-17T09:44:28.000Z</time>
      </trkpt>
      <trkpt lat="41.818025" lon="-70.88339">
        <ele>30.025912</ele>
        <time>2023-06-17T09:44:46.000Z</time>
      </trkpt>
      <trkpt lat="41.818415" lon="-70.88343">
        <ele>29.650424</ele>
        <time>2023-06-17T09:44:50.000Z</time>
      </trkpt>
      <trkpt lat="41.821759" lon="-70.883841">
        <ele>30.317516</ele>
        <time>2023-06-17T09:45:27.000Z</time>
      </trkpt>
      <trkpt lat="41.821855" lon="-70.883845">
        <ele>30.33916</ele>
        <time>2023-06-17T09:45:28.000Z</time>
      </trkpt>
      <trkpt lat="41.825497" lon="-70.88423">
        <ele>29.821072</ele>
        <time>2023-06-17T09:46:09.000Z</time>
      </trkpt>
      <trkpt lat="41.827134" lon="-70.884387">
        <ele>29.678822</ele>
        <time>2023-06-17T09:46:27.000Z</time>
      </trkpt>
      <trkpt lat="41.830258" lon="-70.884208">
        <ele>30.03458</ele>
        <time>2023-06-17T09:47:02.000Z</time>
      </trkpt>
      <trkpt lat="41.83082" lon="-70.884051">
        <ele>30.169068</ele>
        <time>2023-06-17T09:47:08.000Z</time>
      </trkpt>
      <trkpt lat="41.831497" lon="-70.883745">
        <ele>30.502834</ele>
        <time>2023-06-17T09:47:16.000Z</time>
      </trkpt>
      <trkpt lat="41.834041" lon="-70.882562">
        <ele>31.962619</ele>
        <time>2023-06-17T09:47:46.000Z</time>
      </trkpt>
      <trkpt lat="41.834406" lon="-70.88219">
        <ele>32.186873</ele>
        <time>2023-06-17T09:47:51.000Z</time>
      </trkpt>
      <trkpt lat="41.834569" lon="-70.881919">
        <ele>32.139817</ele>
        <time>2023-06-17T09:47:54.000Z</time>
      </trkpt>
      <trkpt lat="41.834712" lon="-70.881563">
        <ele>32.08269</ele>
        <time>2023-06-17T09:47:57.000Z</time>
      </trkpt>
      <trkpt lat="41.834793" lon="-70.880873">
        <ele>31.989621</ele>
        <time>2023-06-17T09:48:03.000Z</time>
      </trkpt>
      <trkpt lat="41.83477" lon="-70.880569">
        <ele>31.947267</ele>
        <time>2023-06-17T09:48:06.000Z</time>
      </trkpt>
      <trkpt lat="41.834688" lon="-70.880006">
        <ele>31.867882</ele>
        <time>2023-06-17T09:48:11.000Z</time>
      </trkpt>
      <trkpt lat="41.834594" lon="-70.87922">
        <ele>31.859878</ele>
        <time>2023-06-17T09:48:18.000Z</time>
      </trkpt>
      <trkpt lat="41.8344" lon="-70.87766">
        <ele>31.863834</ele>
        <time>2023-06-17T09:48:31.000Z</time>
      </trkpt>
      <trkpt lat="41.834284" lon="-70.876853">
        <ele>31.541293</ele>
        <time>2023-06-17T09:48:38.000Z</time>
      </trkpt>
      <trkpt lat="41.83414" lon="-70.875627">
        <ele>30.978481</ele>
        <time>2023-06-17T09:48:48.000Z</time>
      </trkpt>
      <trkpt lat="41.834134" lon="-70.875552">
        <ele>30.94957</ele>
        <time>2023-06-17T09:48:49.000Z</time>
      </trkpt>
      <trkpt lat="41.833916" lon="-70.873833">
        <ele>29.487099</ele>
        <time>2023-06-17T09:49:03.000Z</time>
      </trkpt>
      <trkpt lat="41.833937" lon="-70.873037">
        <ele>28.71909</ele>
        <time>2023-06-17T09:49:10.000Z</time>
      </trkpt>
      <trkpt lat="41.834027" lon="-70.872364">
        <ele>28.320626</ele>
        <time>2023-06-17T09:49:16.000Z</time>
      </trkpt>
      <trkpt lat="41.833205" lon="-70.872891">
        <ele>27.854062</ele>
        <time>2023-06-17T09:49:26.000Z</time>
      </trkpt>
      <trkpt lat="41.832941" lon="-70.872993">
        <ele>27.713911</ele>
        <time>2023-06-17T09:49:29.000Z</time>
      </trkpt>
      <trkpt lat="41.832238" lon="-70.873046">
        <ele>27.706323</ele>
        <time>2023-06-17T09:49:37.000Z</time>
      </trkpt>
      <trkpt lat="41.831888" lon="-70.872999">
        <ele>27.823143</ele>
        <time>2023-06-17T09:49:41.000Z</time>
      </trkpt>
      <trkpt lat="41.831174" lon="-70.87271">
        <ele>28.084393</ele>
        <time>2023-06-17T09:49:49.000Z</time>
      </trkpt>
      <trkpt lat="41.830646" lon="-70.872644">
        <ele>28.43827</ele>
        <time>2023-06-17T09:49:55.000Z</time>
      </trkpt>
      <trkpt lat="41.830339" lon="-70.872714">
        <ele>28.766773</ele>
        <time>2023-06-17T09:49:58.000Z</time>
      </trkpt>
      <trkpt lat="41.830323" lon="-70.872737">
        <ele>28.795722</ele>
        <time>2023-06-17T09:49:58.000Z</time>
      </trkpt>
      <trkpt lat="41.829764" lon="-70.873011">
        <ele>29.435019</ele>
        <time>2023-06-17T09:50:05.000Z</time>
      </trkpt>
      <trkpt lat="41.827778" lon="-70.874258">
        <ele>31.844943</ele>
        <time>2023-06-17T09:50:29.000Z</time>
      </trkpt>
      <trkpt lat="41.827361" lon="-70.874512">
        <ele>32.222042</ele>
        <time>2023-06-17T09:50:34.000Z</time>
      </trkpt>
      <trkpt lat="41.826829" lon="-70.874847">
        <ele>32.51631</ele>
        <time>2023-06-17T09:50:41.000Z</time>
      </trkpt>
      <trkpt lat="41.826553" lon="-70.875031">
        <ele>32.674676</ele>
        <time>2023-06-17T09:50:44.000Z</time>
      </trkpt>
      <trkpt lat="41.82566" lon="-70.875578">
        <ele>33.047455</ele>
        <time>2023-06-17T09:50:55.000Z</time>
      </trkpt>
      <trkpt lat="41.825527" lon="-70.875652">
        <ele>33.059448</ele>
        <time>2023-06-17T09:50:57.000Z</time>
      </trkpt>
      <trkpt lat="41.824723" lon="-70.876161">
        <ele>33.132592</ele>
        <time>2023-06-17T09:51:07.000Z</time>
      </trkpt>
      <trkpt lat="41.823925" lon="-70.876698">
        <ele>32.90335</ele>
        <time>2023-06-17T09:51:17.000Z</time>
      </trkpt>
      <trkpt lat="41.822884" lon="-70.877421">
        <ele>32.128952</ele>
        <time>2023-06-17T09:51:30.000Z</time>
      </trkpt>
      <trkpt lat="41.822607" lon="-70.877551">
        <ele>31.961875</ele>
        <time>2023-06-17T09:51:33.000Z</time>
      </trkpt>
      <trkpt lat="41.822368" lon="-70.87759">
        <ele>31.884839</ele>
        <time>2023-06-17T09:51:36.000Z</time>
      </trkpt>
      <trkpt lat="41.822038" lon="-70.877547">
        <ele>31.777511</ele>
        <time>2023-06-17T09:51:40.000Z</time>
      </trkpt>
      <trkpt lat="41.821578" lon="-70.877432">
        <ele>31.627517</ele>
        <time>2023-06-17T09:51:45.000Z</time>
      </trkpt>
      <trkpt lat="41.821005" lon="-70.877298">
        <ele>31.434543</ele>
        <time>2023-06-17T09:51:51.000Z</time>
      </trkpt>
      <trkpt lat="41.820376" lon="-70.87722">
        <ele>31.588738</ele>
        <time>2023-06-17T09:51:58.000Z</time>
      </trkpt>
      <trkpt lat="41.819572" lon="-70.877234">
        <ele>31.860319</ele>
        <time>2023-06-17T09:52:07.000Z</time>
      </trkpt>
      <trkpt lat="41.819018" lon="-70.877236">
        <ele>32.098648</ele>
        <time>2023-06-17T09:52:13.000Z</time>
      </trkpt>
      <trkpt lat="41.817677" lon="-70.877084">
        <ele>33.340771</ele>
        <time>2023-06-17T09:52:28.000Z</time>
      </trkpt>
      <trkpt lat="41.817043" lon="-70.877035">
        <ele>33.771603</ele>
        <time>2023-06-17T09:52:35.000Z</time>
      </trkpt>
      <trkpt lat="41.815906" lon="-70.877059">
        <ele>34.215636</ele>
        <time>2023-06-17T09:52:48.000Z</time>
      </trkpt>
      <trkpt lat="41.815331" lon="-70.877101">
        <ele>34.320198</ele>
        <time>2023-06-17T09:52:54.000Z</time>
      </trkpt>
      <trkpt lat="41.814987" lon="-70.877215">
        <ele>34.246791</ele>
        <time>2023-06-17T09:52:58.000Z</time>
      </trkpt>
      <trkpt lat="41.812842" lon="-70.878663">
        <ele>33.858878</ele>
        <time>2023-06-17T09:53:25.000Z</time>
      </trkpt>
      <trkpt lat="41.812586" lon="-70.878835">
        <ele>33.826893</ele>
        <time>2023-06-17T09:53:28.000Z</time>
      </trkpt>
      <trkpt lat="41.812129" lon="-70.879136">
        <ele>33.8099</ele>
        <time>2023-06-17T09:53:34.000Z</time>
      </trkpt>
      <trkpt lat="41.811293" lon="-70.879701">
        <ele>33.937699</ele>
        <time>2023-06-17T09:53:44.000Z</time>
      </trkpt>
      <trkpt lat="41.81076" lon="-70.880047">
        <ele>34.017572</ele>
        <time>2023-06-17T09:53:51.000Z</time>
      </trkpt>
      <trkpt lat="41.810492" lon="-70.880225">
        <ele>33.985864</ele>
        <time>2023-06-17T09:53:54.000Z</time>
      </trkpt>
      <trkpt lat="41.809188" lon="-70.881069">
        <ele>33.560897</ele>
        <time>2023-06-17T09:54:10.000Z</time>
      </trkpt>
      <trkpt lat="41.808547" lon="-70.880741">
        <ele>33.326472</ele>
        <time>2023-06-17T09:54:18.000Z</time>
      </trkpt>
      <trkpt lat="41.808189" lon="-70.880566">
        <ele>33.192278</ele>
        <time>2023-06-17T09:54:22.000Z</time>
      </trkpt>
      <trkpt lat="41.807254" lon="-70.880081">
        <ele>32.751772</ele>
        <time>2023-06-17T09:54:33.000Z</time>
      </trkpt>
      <trkpt lat="41.806059" lon="-70.87951">
        <ele>31.22878</ele>
        <time>2023-06-17T09:54:47.000Z</time>
      </trkpt>
      <trkpt lat="41.80564" lon="-70.879298">
        <ele>30.673965</ele>
        <time>2023-06-17T09:54:52.000Z</time>
      </trkpt>
      <trkpt lat="41.804762" lon="-70.87889">
        <ele>29.087772</ele>
        <time>2023-06-17T09:55:02.000Z</time>
      </trkpt>
      <trkpt lat="41.804162" lon="-70.878576">
        <ele>27.975536</ele>
        <time>2023-06-17T09:55:09.000Z</time>
      </trkpt>
      <trkpt lat="41.803338" lon="-70.878098">
        <ele>26.578693</ele>
        <time>2023-06-17T09:55:19.000Z</time>
      </trkpt>
      <trkpt lat="41.802552" lon="-70.877668">
        <ele>25.287706</ele>
        <time>2023-06-17T09:55:28.000Z</time>
      </trkpt>
      <trkpt lat="41.801283" lon="-70.876993">
        <ele>24.131547</ele>
        <time>2023-06-17T09:55:43.000Z</time>
      </trkpt>
      <trkpt lat="41.801139" lon="-70.876923">
        <ele>24.026701</ele>
        <time>2023-06-17T09:55:45.000Z</time>
      </trkpt>
      <trkpt lat="41.800773" lon="-70.876726">
        <ele>23.763301</ele>
        <time>2023-06-17T09:55:49.000Z</time>
      </trkpt>
      <trkpt lat="41.799056" lon="-70.875784">
        <ele>24.214857</ele>
        <time>2023-06-17T09:56:10.000Z</time>
      </trkpt>
      <trkpt lat="41.796811" lon="-70.874569">
        <ele>25.643182</ele>
        <time>2023-06-17T09:56:37.000Z</time>
      </trkpt>
      <trkpt lat="41.79608" lon="-70.874124">
        <ele>25.88745</ele>
        <time>2023-06-17T09:56:46.000Z</time>
      </trkpt>
      <trkpt lat="41.795827" lon="-70.873879">
        <ele>25.980567</ele>
        <time>2023-06-17T09:56:49.000Z</time>
      </trkpt>
      <trkpt lat="41.793865" lon="-70.871479">
        <ele>26.714427</ele>
        <time>2023-06-17T09:57:19.000Z</time>
      </trkpt>
      <trkpt lat="41.793195" lon="-70.870813">
        <ele>27.286139</ele>
        <time>2023-06-17T09:57:28.000Z</time>
      </trkpt>
      <trkpt lat="41.793076" lon="-70.870669">
        <ele>27.399758</ele>
        <time>2023-06-17T09:57:30.000Z</time>
      </trkpt>
      <trkpt lat="41.792282" lon="-70.869796">
        <ele>28.467882</ele>
        <time>2023-06-17T09:57:41.000Z</time>
      </trkpt>
      <trkpt lat="41.792" lon="-70.8695">
        <ele>28.866829</ele>
        <time>2023-06-17T09:57:45.000Z</time>
      </trkpt>
      <trkpt lat="41.791965" lon="-70.869445">
        <ele>28.925896</ele>
        <time>2023-06-17T09:57:46.000Z</time>
      </trkpt>
      <trkpt lat="41.791481" lon="-70.868772">
        <ele>29.515301</ele>
        <time>2023-06-17T09:57:54.000Z</time>
      </trkpt>
      <trkpt lat="41.791108" lon="-70.868848">
        <ele>29.647577</ele>
        <time>2023-06-17T09:57:58.000Z</time>
      </trkpt>
      <trkpt lat="41.790537" lon="-70.870027">
        <ele>30.022324</ele>
        <time>2023-06-17T09:58:10.000Z</time>
      </trkpt>
      <trkpt lat="41.790336" lon="-70.870332">
        <ele>30.020803</ele>
        <time>2023-06-17T09:58:13.000Z</time>
      </trkpt>
      <trkpt lat="41.789925" lon="-70.870773">
        <ele>29.854254</ele>
        <time>2023-06-17T09:58:19.000Z</time>
      </trkpt>
      <trkpt lat="41.78898" lon="-70.871564">
        <ele>29.493853</ele>
        <time>2023-06-17T09:58:31.000Z</time>
      </trkpt>
      <trkpt lat="41.788642" lon="-70.871975">
        <ele>29.206796</ele>
        <time>2023-06-17T09:58:36.000Z</time>
      </trkpt>
      <trkpt lat="41.788471" lon="-70.872389">
        <ele>28.974043</ele>
        <time>2023-06-17T09:58:40.000Z</time>
      </trkpt>
      <trkpt lat="41.78814" lon="-70.873624">
        <ele>28.351379</ele>
        <time>2023-06-17T09:58:51.000Z</time>
      </trkpt>
      <trkpt lat="41.787917" lon="-70.874089">
        <ele>27.954908</ele>
        <time>2023-06-17T09:58:56.000Z</time>
      </trkpt>
      <trkpt lat="41.787534" lon="-70.874709">
        <ele>27.368819</ele>
        <time>2023-06-17T09:59:03.000Z</time>
      </trkpt>
      <trkpt lat="41.787006" lon="-70.87554">
        <ele>26.591332</ele>
        <time>2023-06-17T09:59:12.000Z</time>
      </trkpt>
      <trkpt lat="41.785607" lon="-70.87741">
        <ele>24.490963</ele>
        <time>2023-06-17T09:59:34.000Z</time>
      </trkpt>
      <trkpt lat="41.785424" lon="-70.877643">
        <ele>24.368133</ele>
        <time>2023-06-17T09:59:37.000Z</time>
      </trkpt>
      <trkpt lat="41.785012" lon="-70.87828">
        <ele>24.059274</ele>
        <time>2023-06-17T09:59:44.000Z</time>
      </trkpt>
      <trkpt lat="41.784684" lon="-70.878964">
        <ele>23.768702</ele>
        <time>2023-06-17T09:59:51.000Z</time>
      </trkpt>
      <trkpt lat="41.783606" lon="-70.882714">
        <ele>23.925863</ele>
        <time>2023-06-17T10:00:24.000Z</time>
      </trkpt>
      <trkpt lat="41.783176" lon="-70.88428">
        <ele>23.276826</ele>
        <time>2023-06-17T10:00:38.000Z</time>
      </trkpt>
      <trkpt lat="41.783038" lon="-70.884741">
        <ele>22.901368</ele>
        <time>2023-06-17T10:00:42.000Z</time>
      </trkpt>
      <trkpt lat="41.782959" lon="-70.885061">
        <ele>22.649442</ele>
        <time>2023-06-17T10:00:45.000Z</time>
      </trkpt>
      <trkpt lat="41.782863" lon="-70.885921">
        <ele>22.001064</ele>
        <time>2023-06-17T10:00:52.000Z</time>
      </trkpt>
      <trkpt lat="41.782667" lon="-70.889959">
        <ele>22.515169</ele>
        <time>2023-06-17T10:01:26.000Z</time>
      </trkpt>
      <trkpt lat="41.782641" lon="-70.890219">
        <ele>22.659746</ele>
        <time>2023-06-17T10:01:28.000Z</time>
      </trkpt>
      <trkpt lat="41.782548" lon="-70.891044">
        <ele>23.559171</ele>
        <time>2023-06-17T10:01:35.000Z</time>
      </trkpt>
      <trkpt lat="41.782509" lon="-70.891326">
        <ele>24.094899</ele>
        <time>2023-06-17T10:01:37.000Z</time>
      </trkpt>
      <trkpt lat="41.782215" lon="-70.894104">
        <ele>28.096064</ele>
        <time>2023-06-17T10:02:00.000Z</time>
      </trkpt>
      <trkpt lat="41.782128" lon="-70.895038">
        <ele>28.624712</ele>
        <time>2023-06-17T10:02:08.000Z</time>
      </trkpt>
      <trkpt lat="41.782105" lon="-70.895256">
        <ele>28.759935</ele>
        <time>2023-06-17T10:02:10.000Z</time>
      </trkpt>
      <trkpt lat="41.782061" lon="-70.895645">
        <ele>28.795723</ele>
        <time>2023-06-17T10:02:13.000Z</time>
      </trkpt>
      <trkpt lat="41.782037" lon="-70.895887">
        <ele>28.598102</ele>
        <time>2023-06-17T10:02:15.000Z</time>
      </trkpt>
      <trkpt lat="41.781982" lon="-70.896372">
        <ele>28.222632</ele>
        <time>2023-06-17T10:02:19.000Z</time>
      </trkpt>
      <trkpt lat="41.781929" lon="-70.896932">
        <ele>27.790178</ele>
        <time>2023-06-17T10:02:24.000Z</time>
      </trkpt>
      <trkpt lat="41.78171" lon="-70.898958">
        <ele>26.967548</ele>
        <time>2023-06-17T10:02:41.000Z</time>
      </trkpt>
      <trkpt lat="41.781545" lon="-70.900514">
        <ele>26.887602</ele>
        <time>2023-06-17T10:02:54.000Z</time>
      </trkpt>
      <trkpt lat="41.781417" lon="-70.901798">
        <ele>26.866932</ele>
        <time>2023-06-17T10:03:05.000Z</time>
      </trkpt>
      <trkpt lat="41.781161" lon="-70.904229">
        <ele>26.605851</ele>
        <time>2023-06-17T10:03:25.000Z</time>
      </trkpt>
      <trkpt lat="41.781075" lon="-70.904996">
        <ele>26.484659</ele>
        <time>2023-06-17T10:03:31.000Z</time>
      </trkpt>
      <trkpt lat="41.780988" lon="-70.906046">
        <ele>26.299538</ele>
        <time>2023-06-17T10:03:40.000Z</time>
      </trkpt>
      <trkpt lat="41.780977" lon="-70.90629">
        <ele>26.257774</ele>
        <time>2023-06-17T10:03:42.000Z</time>
      </trkpt>
      <trkpt lat="41.781006" lon="-70.906912">
        <ele>26.148385</ele>
        <time>2023-06-17T10:03:47.000Z</time>
      </trkpt>
      <trkpt lat="41.781053" lon="-70.907547">
        <ele>26.053124</ele>
        <time>2023-06-17T10:03:52.000Z</time>
      </trkpt>
      <trkpt lat="41.781069" lon="-70.908781">
        <ele>26.086693</ele>
        <time>2023-06-17T10:04:02.000Z</time>
      </trkpt>
      <trkpt lat="41.780797" lon="-70.911542">
        <ele>26.622998</ele>
        <time>2023-06-17T10:04:25.000Z</time>
      </trkpt>
      <trkpt lat="41.780682" lon="-70.91263">
        <ele>26.894266</ele>
        <time>2023-06-17T10:04:34.000Z</time>
      </trkpt>
      <trkpt lat="41.780461" lon="-70.913778">
        <ele>27.06973</ele>
        <time>2023-06-17T10:04:44.000Z</time>
      </trkpt>
      <trkpt lat="41.779996" lon="-70.915806">
        <ele>27.170448</ele>
        <time>2023-06-17T10:05:02.000Z</time>
      </trkpt>
      <trkpt lat="41.779655" lon="-70.917512">
        <ele>27.161145</ele>
        <time>2023-06-17T10:05:17.000Z</time>
      </trkpt>
      <trkpt lat="41.77959" lon="-70.918323">
        <ele>27.178088</ele>
        <time>2023-06-17T10:05:24.000Z</time>
      </trkpt>
      <trkpt lat="41.779583" lon="-70.918434">
        <ele>27.180596</ele>
        <time>2023-06-17T10:05:25.000Z</time>
      </trkpt>
      <trkpt lat="41.779498" lon="-70.919247">
        <ele>27.197745</ele>
        <time>2023-06-17T10:05:32.000Z</time>
      </trkpt>
      <trkpt lat="41.779372" lon="-70.920444">
        <ele>27.065417</ele>
        <time>2023-06-17T10:05:42.000Z</time>
      </trkpt>
      <trkpt lat="41.779187" lon="-70.922071">
        <ele>26.88415</ele>
        <time>2023-06-17T10:05:56.000Z</time>
      </trkpt>
      <trkpt lat="41.778857" lon="-70.925718">
        <ele>26.68541</ele>
        <time>2023-06-17T10:06:26.000Z</time>
      </trkpt>
      <trkpt lat="41.77871" lon="-70.927363">
        <ele>26.427171</ele>
        <time>2023-06-17T10:06:40.000Z</time>
      </trkpt>
      <trkpt lat="41.778698" lon="-70.927652">
        <ele>26.344543</ele>
        <time>2023-06-17T10:06:42.000Z</time>
      </trkpt>
      <trkpt lat="41.778627" lon="-70.928296">
        <ele>26.156481</ele>
        <time>2023-06-17T10:06:47.000Z</time>
      </trkpt>
      <trkpt lat="41.778592" lon="-70.92859">
        <ele>26.075253</ele>
        <time>2023-06-17T10:06:49.000Z</time>
      </trkpt>
      <trkpt lat="41.77854" lon="-70.929072">
        <ele>25.852002</ele>
        <time>2023-06-17T10:06:53.000Z</time>
      </trkpt>
      <trkpt lat="41.778456" lon="-70.929872">
        <ele>25.307229</ele>
        <time>2023-06-17T10:07:00.000Z</time>
      </trkpt>
      <trkpt lat="41.778426" lon="-70.930226">
        <ele>25.058682</ele>
        <time>2023-06-17T10:07:03.000Z</time>
      </trkpt>
      <trkpt lat="41.778357" lon="-70.930971">
        <ele>24.549415</ele>
        <time>2023-06-17T10:07:09.000Z</time>
      </trkpt>
      <trkpt lat="41.778269" lon="-70.93164">
        <ele>24.0636</ele>
        <time>2023-06-17T10:07:15.000Z</time>
      </trkpt>
      <trkpt lat="41.778186" lon="-70.932419">
        <ele>23.450097</ele>
        <time>2023-06-17T10:07:22.000Z</time>
      </trkpt>
      <trkpt lat="41.77811" lon="-70.93306">
        <ele>22.952433</ele>
        <time>2023-06-17T10:07:27.000Z</time>
      </trkpt>
      <trkpt lat="41.778064" lon="-70.9334">
        <ele>22.693064</ele>
        <time>2023-06-17T10:07:30.000Z</time>
      </trkpt>
      <trkpt lat="41.778025" lon="-70.933817">
        <ele>22.406265</ele>
        <time>2023-06-17T10:07:33.000Z</time>
      </trkpt>
      <trkpt lat="41.777911" lon="-70.934473">
        <ele>22.01407</ele>
        <time>2023-06-17T10:07:39.000Z</time>
      </trkpt>
      <trkpt lat="41.7779" lon="-70.934544">
        <ele>21.968611</ele>
        <time>2023-06-17T10:07:40.000Z</time>
      </trkpt>
      <trkpt lat="41.777674" lon="-70.935062">
        <ele>21.603056</ele>
        <time>2023-06-17T10:07:45.000Z</time>
      </trkpt>
      <trkpt lat="41.777918" lon="-70.935142">
        <ele>21.397495</ele>
        <time>2023-06-17T10:07:48.000Z</time>
      </trkpt>
      <trkpt lat="41.779312" lon="-70.935247">
        <ele>21.096013</ele>
        <time>2023-06-17T10:08:04.000Z</time>
      </trkpt>
    </trkseg>
  </trk>
</gpx>

<!--
Performance optimized by W3 Total Cache. Learn more: https://www.boldgrid.com/w3-total-cache/?utm_source=w3tc&utm_medium=footer_comment&utm_campaign=free_plugin

Page Caching using Disk: Enhanced{w3tc_pagecache_reject_reason} 

Served from: www.aquabike.world @ 2026-05-11 01:05:25 by W3 Total Cache
-->